Darstellungsparameter: Aktuell verwendete Einstellungen:
Skalierung der Graphiken ... ?
xyx+y,   Skalierungsfaktor:      Skalierung: Modus: x, Faktor: 1
Darstellungszeitraum ... ?
Vom - - bis: - -   Zeitraum: 29.06.2020 - 05.07.2020
Min/Max/Avg-Anzeige ... ?
Zeige MMA aktuell
Zeige MMA Monat
Zeige MMA alles
Zeige --A aktuell
Zeige --A Monat
Zeige --A alles
Keine MMA-Anzeige
MMA:
Keine MMA-Graphiken
MMA-Basis: 29.06.2020 - 05.07.2020
Quicknavigation für Darstellung... ?
Tage:      1T, 2T, 3T, 5T -1T -2T -3T -5T +1T +2T +3T +5T
Wochen: 1W, 2W, 3W -1W -2W -3W +1W +2W +3W
Monate: 1M, 3M, 6M -1M -3M -6M +1M +3M +6M
Jahre:    1J, 3J, 5J, 10J -1J -3J -5J -10J +1J +3J +5J +10J
Nutze für die Darstellung ... ?
Originaldaten oder Mittelwerte auf ...
Stundenbasis Tagesbasis Wochenbasis
Monatsbasis Jahresbasis      Datenbasis: Original-Daten
Darstellen als:
Statistik (Auto) Statistik J:M      Darstellung:
Zur Graphik,    zurück zur Übersicht aller Sensoren.
 
Tabellarische Datenbersicht: ?
 
Sensor: Nr:Datum:Temp:Feuchte:Taupunkt:
Aussen-T/F 1 29-06-2020 00:00:00 15.1 C 84 % 12.42 C
2 29-06-2020 00:05:00 15.1 C 84 % 12.42 C
3 29-06-2020 00:10:00 15 C 84 % 12.32 C
4 29-06-2020 00:15:00 15 C 84 % 12.32 C
5 29-06-2020 00:20:00 15.1 C 84 % 12.42 C
6 29-06-2020 00:25:00 15.1 C 84 % 12.42 C
7 29-06-2020 00:30:00 15.1 C 84 % 12.42 C
8 29-06-2020 00:35:00 15.1 C 84 % 12.42 C
9 29-06-2020 00:40:00 15.1 C 84 % 12.42 C
10 29-06-2020 00:45:00 15.1 C 84 % 12.42 C
11 29-06-2020 00:50:00 15 C 84 % 12.32 C
12 29-06-2020 00:55:00 15 C 85 % 12.5 C
13 29-06-2020 01:00:00 15 C 85 % 12.5 C
14 29-06-2020 01:05:00 15 C 85 % 12.5 C
15 29-06-2020 01:10:00 15 C 85 % 12.5 C
16 29-06-2020 01:15:00 14.9 C 85 % 12.4 C
17 29-06-2020 01:20:00 14.9 C 85 % 12.4 C
18 29-06-2020 01:25:00 14.8 C 85 % 12.3 C
19 29-06-2020 01:30:00 14.8 C 85 % 12.3 C
20 29-06-2020 01:35:00 14.7 C 85 % 12.21 C
21 29-06-2020 01:40:00 14.5 C 86 % 12.19 C
22 29-06-2020 01:45:00 14.4 C 86 % 12.09 C
23 29-06-2020 01:50:00 14.2 C 86 % 11.89 C
24 29-06-2020 01:55:00 14.2 C 87 % 12.07 C
25 29-06-2020 02:00:00 14.1 C 87 % 11.97 C
Sensor: Nr:Datum:Temp:Feuchte:Taupunkt:
Aussen-T/F 26 29-06-2020 02:05:00 13.9 C 88 % 11.95 C
27 29-06-2020 02:10:00 13.9 C 88 % 11.95 C
28 29-06-2020 02:15:00 13.9 C 88 % 11.95 C
29 29-06-2020 02:20:00 13.8 C 89 % 12.02 C
30 29-06-2020 02:25:00 13.8 C 89 % 12.02 C
31 29-06-2020 02:30:00 13.8 C 89 % 12.02 C
32 29-06-2020 02:35:00 13.8 C 89 % 12.02 C
33 29-06-2020 02:40:00 13.8 C 90 % 12.19 C
34 29-06-2020 02:45:00 13.8 C 90 % 12.19 C
35 29-06-2020 02:50:00 13.8 C 90 % 12.19 C
36 29-06-2020 02:55:00 13.8 C 90 % 12.19 C
37 29-06-2020 03:00:00 13.8 C 90 % 12.19 C
38 29-06-2020 03:05:00 13.8 C 90 % 12.19 C
39 29-06-2020 03:10:00 13.9 C 90 % 12.29 C
40 29-06-2020 03:15:00 13.9 C 90 % 12.29 C
41 29-06-2020 03:20:00 13.9 C 91 % 12.46 C
42 29-06-2020 03:25:00 14.1 C 91 % 12.65 C
43 29-06-2020 03:30:00 14.1 C 91 % 12.65 C
44 29-06-2020 03:35:00 14.1 C 90 % 12.49 C
45 29-06-2020 03:40:00 14.1 C 90 % 12.49 C
46 29-06-2020 03:45:00 14.1 C 90 % 12.49 C
47 29-06-2020 03:50:00 13.9 C 90 % 12.29 C
48 29-06-2020 03:55:00 13.9 C 90 % 12.29 C
49 29-06-2020 04:00:00 13.8 C 90 % 12.19 C
50 29-06-2020 04:05:00 13.8 C 91 % 12.36 C
Sensor: Nr:Datum:Temp:Feuchte:Taupunkt:
Aussen-T/F 51 29-06-2020 04:10:00 13.9 C 91 % 12.46 C
52 29-06-2020 04:15:00 14 C 91 % 12.56 C
53 29-06-2020 04:20:00 14.1 C 91 % 12.65 C
54 29-06-2020 04:25:00 14.1 C 92 % 12.82 C
55 29-06-2020 04:30:00 14.2 C 91 % 12.75 C
56 29-06-2020 04:35:00 14.2 C 91 % 12.75 C
57 29-06-2020 04:40:00 14.2 C 91 % 12.75 C
58 29-06-2020 04:45:00 14.3 C 91 % 12.85 C
59 29-06-2020 04:50:00 14.3 C 91 % 12.85 C
60 29-06-2020 04:55:00 14.3 C 91 % 12.85 C
61 29-06-2020 05:00:00 14.4 C 91 % 12.95 C
62 29-06-2020 05:05:00 14.5 C 91 % 13.05 C
63 29-06-2020 05:10:00 14.6 C 91 % 13.15 C
64 29-06-2020 05:15:00 14.7 C 90 % 13.08 C
65 29-06-2020 05:20:00 14.8 C 89 % 13.01 C
66 29-06-2020 05:25:00 14.9 C 89 % 13.1 C
67 29-06-2020 05:30:00 15.1 C 88 % 13.13 C
68 29-06-2020 05:35:00 15.1 C 88 % 13.13 C
69 29-06-2020 05:40:00 15.2 C 88 % 13.23 C
70 29-06-2020 05:45:00 15.2 C 88 % 13.23 C
71 29-06-2020 05:50:00 15.2 C 87 % 13.05 C
72 29-06-2020 05:55:00 15.2 C 87 % 13.05 C
73 29-06-2020 06:00:00 15.2 C 87 % 13.05 C
74 29-06-2020 06:05:00 15.3 C 87 % 13.15 C
75 29-06-2020 06:10:00 15.3 C 87 % 13.15 C
Sensor: Nr:Datum:Temp:Feuchte:Taupunkt:
Aussen-T/F 76 29-06-2020 06:15:00 15.2 C 87 % 13.05 C
77 29-06-2020 06:20:00 15.3 C 87 % 13.15 C
78 29-06-2020 06:25:00 15.3 C 87 % 13.15 C
79 29-06-2020 06:30:00 15.4 C 87 % 13.25 C
80 29-06-2020 06:35:00 15.4 C 87 % 13.25 C
81 29-06-2020 06:40:00 15.5 C 87 % 13.35 C
82 29-06-2020 06:45:00 15.6 C 86 % 13.27 C
83 29-06-2020 06:50:00 15.7 C 86 % 13.37 C
84 29-06-2020 06:55:00 15.8 C 86 % 13.46 C
85 29-06-2020 07:00:00 15.8 C 86 % 13.46 C
86 29-06-2020 07:05:00 15.9 C 86 % 13.56 C
87 29-06-2020 07:10:00 16 C 86 % 13.66 C
88 29-06-2020 07:15:00 16.1 C 85 % 13.58 C
89 29-06-2020 07:20:00 16.2 C 85 % 13.68 C
90 29-06-2020 07:25:00 16.3 C 84 % 13.59 C
91 29-06-2020 07:30:00 16.4 C 84 % 13.69 C
92 29-06-2020 07:35:00 16.5 C 84 % 13.79 C
93 29-06-2020 07:40:00 16.6 C 84 % 13.89 C
94 29-06-2020 07:45:00 16.8 C 83 % 13.9 C
95 29-06-2020 07:50:00 16.9 C 83 % 14 C
96 29-06-2020 07:55:00 17.1 C 82 % 14 C
97 29-06-2020 08:00:00 17.2 C 82 % 14.1 C
98 29-06-2020 08:05:00 17.2 C 81 % 13.91 C
99 29-06-2020 08:10:00 17.2 C 81 % 13.91 C
100 29-06-2020 08:15:00 17.2 C 81 % 13.91 C
Sensor: Nr:Datum:Temp:Feuchte:Taupunkt:
Aussen-T/F 101 29-06-2020 08:20:00 17.2 C 81 % 13.91 C
102 29-06-2020 08:25:00 17.1 C 82 % 14 C
103 29-06-2020 08:30:00 17.1 C 82 % 14 C
104 29-06-2020 08:35:00 17 C 82 % 13.91 C
105 29-06-2020 08:40:00 16.5 C 70 % 11.01 C
106 29-06-2020 08:45:00 15.9 C 71 % 10.65 C
107 29-06-2020 08:50:00 14.8 C 77 % 10.81 C
108 29-06-2020 08:55:00 13.8 C 82 % 10.78 C
109 29-06-2020 09:00:00 13.3 C 85 % 10.83 C
110 29-06-2020 09:05:00 13.1 C 88 % 11.16 C
111 29-06-2020 09:10:00 12.8 C 89 % 11.03 C
112 29-06-2020 09:15:00 12.6 C 89 % 10.84 C
113 29-06-2020 09:20:00 12.4 C 91 % 10.97 C
114 29-06-2020 09:25:00 12.4 C 92 % 11.14 C
115 29-06-2020 09:30:00 12.4 C 92 % 11.14 C
116 29-06-2020 09:35:00 12.3 C 92 % 11.04 C
117 29-06-2020 09:40:00 12.3 C 92 % 11.04 C
118 29-06-2020 09:45:00 12.2 C 93 % 11.1 C
119 29-06-2020 09:50:00 12.2 C 93 % 11.1 C
120 29-06-2020 09:55:00 12.2 C 93 % 11.1 C
121 29-06-2020 10:00:00 12.2 C 93 % 11.1 C
122 29-06-2020 10:05:00 12.3 C 94 % 11.36 C
123 29-06-2020 10:10:00 12.4 C 94 % 11.46 C
124 29-06-2020 10:15:00 12.6 C 94 % 11.66 C
125 29-06-2020 10:20:00 12.9 C 95 % 12.12 C
Sensor: Nr:Datum:Temp:Feuchte:Taupunkt:
Aussen-T/F 126 29-06-2020 10:25:00 13.2 C 95 % 12.42 C
127 29-06-2020 10:30:00 13.4 C 94 % 12.45 C
128 29-06-2020 10:35:00 13.7 C 95 % 12.91 C
129 29-06-2020 10:40:00 13.8 C 93 % 12.69 C
130 29-06-2020 10:45:00 14 C 93 % 12.89 C
131 29-06-2020 10:50:00 14.2 C 92 % 12.92 C
132 29-06-2020 10:55:00 14.4 C 91 % 12.95 C
133 29-06-2020 11:00:00 14.6 C 90 % 12.98 C
134 29-06-2020 11:05:00 14.8 C 90 % 13.18 C
135 29-06-2020 11:10:00 15 C 89 % 13.2 C
136 29-06-2020 11:15:00 15.2 C 88 % 13.23 C
137 29-06-2020 11:20:00 15.5 C 87 % 13.35 C
138 29-06-2020 11:25:00 15.7 C 86 % 13.37 C
139 29-06-2020 11:30:00 15.8 C 86 % 13.46 C
140 29-06-2020 11:35:00 16.1 C 86 % 13.76 C
141 29-06-2020 11:40:00 16.3 C 85 % 13.77 C
142 29-06-2020 11:45:00 16.6 C 84 % 13.89 C
143 29-06-2020 11:50:00 16.7 C 83 % 13.8 C
144 29-06-2020 11:55:00 16.9 C 83 % 14 C
145 29-06-2020 12:00:00 17.2 C 83 % 14.29 C
146 29-06-2020 12:05:00 17.3 C 81 % 14.01 C
147 29-06-2020 12:10:00 17.2 C 79 % 13.53 C
148 29-06-2020 12:15:00 17.2 C 80 % 13.72 C
149 29-06-2020 12:20:00 17.2 C 81 % 13.91 C
150 29-06-2020 12:25:00 17.4 C 80 % 13.92 C
Sensor: Nr:Datum:Temp:Feuchte:Taupunkt:
Aussen-T/F 151 29-06-2020 12:30:00 17.7 C 77 % 13.62 C
152 29-06-2020 12:35:00 17.8 C 78 % 13.91 C
153 29-06-2020 12:40:00 17.9 C 78 % 14.01 C
154 29-06-2020 12:45:00 18.1 C 77 % 14.01 C
155 29-06-2020 12:50:00 18.3 C 76 % 14 C
156 29-06-2020 12:55:00 18.6 C 76 % 14.29 C
157 29-06-2020 13:00:00 18.9 C 75 % 14.37 C
158 29-06-2020 13:05:00 19.2 C 72 % 14.03 C
159 29-06-2020 13:10:00 19.4 C 72 % 14.22 C
160 29-06-2020 13:15:00 19.7 C 71 % 14.3 C
161 29-06-2020 13:20:00 19.9 C 68 % 13.82 C
162 29-06-2020 13:25:00 20.1 C 69 % 14.24 C
163 29-06-2020 13:30:00 20.2 C 68 % 14.11 C
164 29-06-2020 13:35:00 20.3 C 69 % 14.43 C
165 29-06-2020 13:40:00 20.4 C 68 % 14.3 C
166 29-06-2020 13:45:00 20.5 C 69 % 14.62 C
167 29-06-2020 13:50:00 20.7 C 67 % 14.36 C
168 29-06-2020 13:55:00 20.8 C 67 % 14.45 C
169 29-06-2020 14:00:00 20.9 C 66 % 14.31 C
170 29-06-2020 14:05:00 21.1 C 66 % 14.5 C
171 29-06-2020 14:10:00 21 C 63 % 13.69 C
172 29-06-2020 14:15:00 20.9 C 63 % 13.6 C
173 29-06-2020 14:20:00 21.1 C 60 % 13.04 C
174 29-06-2020 14:25:00 21.2 C 61 % 13.38 C
175 29-06-2020 14:30:00 21.4 C 58 % 12.8 C
Sensor: Nr:Datum:Temp:Feuchte:Taupunkt:
Aussen-T/F 176 29-06-2020 14:35:00 21.7 C 62 % 14.1 C
177 29-06-2020 14:40:00 21.8 C 62 % 14.2 C
178 29-06-2020 14:45:00 21.8 C 60 % 13.69 C
179 29-06-2020 14:50:00 22.1 C 60 % 13.98 C
180 29-06-2020 14:55:00 22.3 C 57 % 13.37 C
181 29-06-2020 15:00:00 22.2 C 55 % 12.73 C
182 29-06-2020 15:05:00 22.2 C 52 % 11.88 C
183 29-06-2020 15:10:00 22.4 C 52 % 12.07 C
184 29-06-2020 15:15:00 22.8 C 47 % 10.91 C
185 29-06-2020 15:20:00 22.8 C 48 % 11.22 C
186 29-06-2020 15:25:00 22.6 C 48 % 11.04 C
187 29-06-2020 15:30:00 22.3 C 48 % 10.77 C
188 29-06-2020 15:35:00 22.7 C 49 % 11.44 C
189 29-06-2020 15:40:00 23.1 C 47 % 11.18 C
190 29-06-2020 15:45:00 23.4 C 45 % 10.8 C
191 29-06-2020 15:50:00 23.4 C 44 % 10.46 C
192 29-06-2020 15:55:00 23 C 45 % 10.43 C
193 29-06-2020 16:00:00 23.3 C 45 % 10.71 C
194 29-06-2020 16:05:00 23.7 C 47 % 11.73 C
195 29-06-2020 16:10:00 23.9 C 44 % 10.91 C
196 29-06-2020 16:15:00 23.7 C 44 % 10.73 C
197 29-06-2020 16:20:00 23.6 C 45 % 10.98 C
198 29-06-2020 16:25:00 23.2 C 48 % 11.59 C
199 29-06-2020 16:30:00 23.6 C 46 % 11.31 C
200 29-06-2020 16:35:00 24.1 C 43 % 10.75 C
Sensor: Nr:Datum:Temp:Feuchte:Taupunkt:
Aussen-T/F 201 29-06-2020 16:40:00 24.2 C 43 % 10.84 C
202 29-06-2020 16:45:00 24.2 C 43 % 10.84 C
203 29-06-2020 16:50:00 24.4 C 44 % 11.36 C
204 29-06-2020 16:55:00 24.2 C 43 % 10.84 C
205 29-06-2020 17:00:00 23.8 C 48 % 12.14 C
206 29-06-2020 17:05:00 24 C 47 % 12 C
207 29-06-2020 17:10:00 23.8 C 47 % 11.82 C
208 29-06-2020 17:15:00 23.7 C 45 % 11.07 C
209 29-06-2020 17:20:00 23.9 C 45 % 11.25 C
210 29-06-2020 17:25:00 24.2 C 45 % 11.52 C
211 29-06-2020 17:30:00 24.3 C 44 % 11.27 C
212 29-06-2020 17:35:00 24.5 C 43 % 11.11 C
213 29-06-2020 17:40:00 24.3 C 43 % 10.93 C
214 29-06-2020 17:45:00 23.8 C 44 % 10.82 C
215 29-06-2020 17:50:00 23.8 C 43 % 10.48 C
216 29-06-2020 17:55:00 24.2 C 43 % 10.84 C
217 29-06-2020 18:00:00 23.7 C 42 % 10.03 C
218 29-06-2020 18:05:00 23.3 C 46 % 11.04 C
219 29-06-2020 18:10:00 23.7 C 44 % 10.73 C
220 29-06-2020 18:15:00 23.6 C 43 % 10.3 C
221 29-06-2020 18:20:00 23.2 C 44 % 10.28 C
222 29-06-2020 18:25:00 23.2 C 45 % 10.62 C
223 29-06-2020 18:30:00 22.9 C 46 % 10.67 C
224 29-06-2020 18:35:00 23.1 C 44 % 10.19 C
225 29-06-2020 18:40:00 23.4 C 45 % 10.8 C
Sensor: Nr:Datum:Temp:Feuchte:Taupunkt:
Aussen-T/F 226 29-06-2020 18:45:00 23.8 C 41 % 9.76 C
227 29-06-2020 18:50:00 23.6 C 43 % 10.3 C
228 29-06-2020 18:55:00 22.9 C 45 % 10.34 C
229 29-06-2020 19:00:00 22.7 C 46 % 10.49 C
230 29-06-2020 19:05:00 23 C 46 % 10.76 C
231 29-06-2020 19:10:00 22.8 C 46 % 10.58 C
232 29-06-2020 19:15:00 22.7 C 45 % 10.16 C
233 29-06-2020 19:20:00 22.6 C 47 % 10.72 C
234 29-06-2020 19:25:00 22.4 C 44 % 9.56 C
235 29-06-2020 19:30:00 22.1 C 45 % 9.62 C
236 29-06-2020 19:35:00 21.7 C 45 % 9.26 C
237 29-06-2020 19:40:00 21.4 C 46 % 9.31 C
238 29-06-2020 19:45:00 21.3 C 49 % 10.16 C
239 29-06-2020 19:50:00 21.5 C 47 % 9.72 C
240 29-06-2020 19:55:00 21.6 C 45 % 9.17 C
241 29-06-2020 20:00:00 21.3 C 45 % 8.89 C
242 29-06-2020 20:05:00 20.9 C 48 % 9.49 C
243 29-06-2020 20:10:00 20.7 C 49 % 9.61 C
244 29-06-2020 20:15:00 20.4 C 51 % 9.93 C
245 29-06-2020 20:20:00 20.3 C 50 % 9.54 C
246 29-06-2020 20:25:00 20.4 C 49 % 9.34 C
247 29-06-2020 20:30:00 20.7 C 48 % 9.3 C
248 29-06-2020 20:35:00 20.8 C 47 % 9.08 C
249 29-06-2020 20:40:00 20.9 C 48 % 9.49 C
250 29-06-2020 20:45:00 21 C 47 % 9.27 C
Sensor: Nr:Datum:Temp:Feuchte:Taupunkt:
Aussen-T/F 251 29-06-2020 20:50:00 20.9 C 51 % 10.39 C
252 29-06-2020 20:55:00 20.8 C 51 % 10.3 C
253 29-06-2020 21:00:00 20.4 C 50 % 9.64 C
254 29-06-2020 21:05:00 20.3 C 51 % 9.84 C
255 29-06-2020 21:10:00 20.2 C 53 % 10.32 C
256 29-06-2020 21:15:00 19.9 C 53 % 10.04 C
257 29-06-2020 21:20:00 19.7 C 52 % 9.58 C
258 29-06-2020 21:25:00 19.6 C 54 % 10.05 C
259 29-06-2020 21:30:00 19.3 C 55 % 10.04 C
260 29-06-2020 21:35:00 19.1 C 56 % 10.12 C
261 29-06-2020 21:40:00 18.9 C 54 % 9.4 C
262 29-06-2020 21:45:00 18.8 C 58 % 10.37 C
263 29-06-2020 21:50:00 18.6 C 58 % 10.18 C
264 29-06-2020 21:55:00 18.4 C 58 % 9.99 C
265 29-06-2020 22:00:00 18.3 C 60 % 10.41 C
266 29-06-2020 22:05:00 18.1 C 58 % 9.71 C
267 29-06-2020 22:10:00 17.9 C 63 % 10.76 C
268 29-06-2020 22:15:00 17.7 C 63 % 10.57 C
269 29-06-2020 22:20:00 17.5 C 62 % 10.15 C
270 29-06-2020 22:25:00 17.3 C 63 % 10.2 C
271 29-06-2020 22:30:00 17.2 C 63 % 10.1 C
272 29-06-2020 22:35:00 16.9 C 63 % 9.82 C
273 29-06-2020 22:40:00 16.8 C 62 % 9.49 C
274 29-06-2020 22:45:00 16.7 C 63 % 9.63 C
275 29-06-2020 22:50:00 16.6 C 62 % 9.3 C
Sensor: Nr:Datum:Temp:Feuchte:Taupunkt:
Aussen-T/F 276 29-06-2020 22:55:00 16.4 C 63 % 9.35 C
277 29-06-2020 23:00:00 16.3 C 63 % 9.25 C
278 29-06-2020 23:05:00 16.3 C 65 % 9.71 C
279 29-06-2020 23:10:00 16.1 C 65 % 9.53 C
280 29-06-2020 23:15:00 16 C 65 % 9.43 C
281 29-06-2020 23:20:00 15.8 C 66 % 9.47 C
282 29-06-2020 23:25:00 15.7 C 68 % 9.82 C
283 29-06-2020 23:30:00 15.6 C 68 % 9.72 C
284 29-06-2020 23:35:00 15.4 C 69 % 9.75 C
285 29-06-2020 23:40:00 15.2 C 70 % 9.77 C
286 29-06-2020 23:45:00 15.1 C 71 % 9.89 C
287 29-06-2020 23:50:00 14.9 C 71 % 9.69 C
288 29-06-2020 23:55:00 14.7 C 72 % 9.71 C
289 30-06-2020 00:00:00 14.4 C 73 % 9.63 C
290 30-06-2020 00:05:00 14.3 C 73 % 9.53 C
291 30-06-2020 00:10:00 14.1 C 74 % 9.54 C
292 30-06-2020 00:15:00 13.9 C 75 % 9.55 C
293 30-06-2020 00:20:00 13.8 C 75 % 9.45 C
294 30-06-2020 00:25:00 13.7 C 76 % 9.55 C
295 30-06-2020 00:30:00 13.6 C 77 % 9.65 C
296 30-06-2020 00:35:00 13.4 C 77 % 9.45 C
297 30-06-2020 00:40:00 13.4 C 78 % 9.65 C
298 30-06-2020 00:45:00 13.4 C 79 % 9.84 C
299 30-06-2020 00:50:00 13.4 C 79 % 9.84 C
300 30-06-2020 00:55:00 13.4 C 79 % 9.84 C
Sensor: Nr:Datum:Temp:Feuchte:Taupunkt:
Aussen-T/F 301 30-06-2020 01:00:00 13.4 C 79 % 9.84 C
302 30-06-2020 01:05:00 13.4 C 79 % 9.84 C
303 30-06-2020 01:10:00 13.4 C 79 % 9.84 C
304 30-06-2020 01:15:00 13.3 C 79 % 9.74 C
305 30-06-2020 01:20:00 13.2 C 78 % 9.45 C
306 30-06-2020 01:25:00 13.2 C 79 % 9.64 C
307 30-06-2020 01:30:00 13.1 C 78 % 9.36 C
308 30-06-2020 01:35:00 12.9 C 79 % 9.35 C
309 30-06-2020 01:40:00 12.8 C 78 % 9.06 C
310 30-06-2020 01:45:00 12.7 C 79 % 9.16 C
311 30-06-2020 01:50:00 12.6 C 80 % 9.25 C
312 30-06-2020 01:55:00 12.5 C 80 % 9.15 C
313 30-06-2020 02:00:00 12.4 C 80 % 9.05 C
314 30-06-2020 02:05:00 12.3 C 80 % 8.95 C
315 30-06-2020 02:10:00 12.2 C 81 % 9.04 C
316 30-06-2020 02:15:00 12.2 C 82 % 9.22 C
317 30-06-2020 02:20:00 12.1 C 82 % 9.12 C
318 30-06-2020 02:25:00 12.1 C 83 % 9.3 C
319 30-06-2020 02:30:00 12 C 83 % 9.21 C
320 30-06-2020 02:35:00 11.9 C 84 % 9.29 C
321 30-06-2020 02:40:00 11.8 C 84 % 9.19 C
322 30-06-2020 02:45:00 11.7 C 84 % 9.09 C
323 30-06-2020 02:50:00 11.6 C 84 % 8.99 C
324 30-06-2020 02:55:00 11.4 C 85 % 8.97 C
325 30-06-2020 03:00:00 11.3 C 85 % 8.87 C
Sensor: Nr:Datum:Temp:Feuchte:Taupunkt:
Aussen-T/F 326 30-06-2020 03:05:00 11.3 C 85 % 8.87 C
327 30-06-2020 03:10:00 11.2 C 86 % 8.95 C
328 30-06-2020 03:15:00 11.2 C 86 % 8.95 C
329 30-06-2020 03:20:00 11.1 C 86 % 8.85 C
330 30-06-2020 03:25:00 11.1 C 87 % 9.02 C
331 30-06-2020 03:30:00 11 C 87 % 8.92 C
332 30-06-2020 03:35:00 11 C 87 % 8.92 C
333 30-06-2020 03:40:00 11 C 88 % 9.09 C
334 30-06-2020 03:45:00 10.9 C 88 % 8.99 C
335 30-06-2020 03:50:00 10.9 C 88 % 8.99 C
336 30-06-2020 03:55:00 10.9 C 88 % 8.99 C
337 30-06-2020 04:00:00 10.8 C 88 % 8.89 C
338 30-06-2020 04:05:00 10.8 C 88 % 8.89 C
339 30-06-2020 04:10:00 10.8 C 88 % 8.89 C
340 30-06-2020 04:15:00 10.8 C 88 % 8.89 C
341 30-06-2020 04:20:00 10.7 C 88 % 8.8 C
342 30-06-2020 04:25:00 10.7 C 89 % 8.96 C
343 30-06-2020 04:30:00 10.6 C 89 % 8.86 C
344 30-06-2020 04:35:00 10.6 C 89 % 8.86 C
345 30-06-2020 04:40:00 10.5 C 89 % 8.77 C
346 30-06-2020 04:45:00 10.4 C 89 % 8.67 C
347 30-06-2020 04:50:00 10.4 C 89 % 8.67 C
348 30-06-2020 04:55:00 10.3 C 89 % 8.57 C
349 30-06-2020 05:00:00 10.3 C 89 % 8.57 C
350 30-06-2020 05:05:00 10.3 C 90 % 8.73 C
Sensor: Nr:Datum:Temp:Feuchte:Taupunkt:
Aussen-T/F 351 30-06-2020 05:10:00 10.2 C 90 % 8.64 C
352 30-06-2020 05:15:00 10.1 C 90 % 8.54 C
353 30-06-2020 05:20:00 10.1 C 90 % 8.54 C
354 30-06-2020 05:25:00 10 C 90 % 8.44 C
355 30-06-2020 05:30:00 9.9 C 90 % 8.34 C
356 30-06-2020 05:35:00 9.9 C 91 % 8.5 C
357 30-06-2020 05:40:00 9.8 C 90 % 8.24 C
358 30-06-2020 05:45:00 9.8 C 91 % 8.4 C
359 30-06-2020 05:50:00 9.8 C 91 % 8.4 C
360 30-06-2020 05:55:00 9.7 C 91 % 8.3 C
361 30-06-2020 06:00:00 9.7 C 91 % 8.3 C
362 30-06-2020 06:05:00 9.7 C 91 % 8.3 C
363 30-06-2020 06:10:00 9.7 C 91 % 8.3 C
364 30-06-2020 06:15:00 9.7 C 92 % 8.46 C
365 30-06-2020 06:20:00 9.7 C 92 % 8.46 C
366 30-06-2020 06:25:00 9.8 C 92 % 8.56 C
367 30-06-2020 06:30:00 9.8 C 92 % 8.56 C
368 30-06-2020 06:35:00 9.8 C 92 % 8.56 C
369 30-06-2020 06:40:00 9.9 C 93 % 8.82 C
370 30-06-2020 06:45:00 10 C 93 % 8.92 C
371 30-06-2020 06:50:00 10.1 C 93 % 9.02 C
372 30-06-2020 06:55:00 10.1 C 93 % 9.02 C
373 30-06-2020 07:00:00 10.2 C 93 % 9.12 C
374 30-06-2020 07:05:00 10.3 C 93 % 9.22 C
375 30-06-2020 07:10:00 10.4 C 93 % 9.32 C
Sensor: Nr:Datum:Temp:Feuchte:Taupunkt:
Aussen-T/F 376 30-06-2020 07:15:00 10.6 C 93 % 9.52 C
377 30-06-2020 07:20:00 10.7 C 92 % 9.45 C
378 30-06-2020 07:25:00 10.9 C 92 % 9.65 C
379 30-06-2020 07:30:00 11.1 C 92 % 9.85 C
380 30-06-2020 07:35:00 11.3 C 91 % 9.89 C
381 30-06-2020 07:40:00 11.6 C 91 % 10.18 C
382 30-06-2020 07:45:00 11.8 C 90 % 10.21 C
383 30-06-2020 07:50:00 11.9 C 90 % 10.31 C
384 30-06-2020 07:55:00 12.2 C 89 % 10.44 C
385 30-06-2020 08:00:00 12.4 C 89 % 10.64 C
386 30-06-2020 08:05:00 12.7 C 89 % 10.94 C
387 30-06-2020 08:10:00 12.9 C 88 % 10.96 C
388 30-06-2020 08:15:00 13.1 C 87 % 10.99 C
389 30-06-2020 08:20:00 13.4 C 87 % 11.28 C
390 30-06-2020 08:25:00 13.6 C 85 % 11.13 C
391 30-06-2020 08:30:00 13.8 C 84 % 11.15 C
392 30-06-2020 08:35:00 14.1 C 83 % 11.26 C
393 30-06-2020 08:40:00 14.3 C 82 % 11.27 C
394 30-06-2020 08:45:00 14.4 C 80 % 11 C
395 30-06-2020 08:50:00 14.6 C 79 % 11 C
396 30-06-2020 08:55:00 14.8 C 79 % 11.2 C
397 30-06-2020 09:00:00 14.9 C 78 % 11.1 C
398 30-06-2020 09:05:00 15.1 C 79 % 11.49 C
399 30-06-2020 09:10:00 15.3 C 77 % 11.3 C
400 30-06-2020 09:15:00 15.5 C 76 % 11.29 C
Sensor: Nr:Datum:Temp:Feuchte:Taupunkt:
Aussen-T/F 401 30-06-2020 09:20:00 15.7 C 74 % 11.08 C
402 30-06-2020 09:25:00 15.9 C 74 % 11.28 C
403 30-06-2020 09:30:00 16.1 C 73 % 11.26 C
404 30-06-2020 09:35:00 16.3 C 74 % 11.66 C
405 30-06-2020 09:40:00 16.5 C 73 % 11.65 C
406 30-06-2020 09:45:00 16.7 C 72 % 11.63 C
407 30-06-2020 09:50:00 16.8 C 70 % 11.3 C
408 30-06-2020 09:55:00 17 C 69 % 11.28 C
409 30-06-2020 10:00:00 17.1 C 67 % 10.93 C
410 30-06-2020 10:05:00 17.2 C 67 % 11.02 C
411 30-06-2020 10:10:00 17.2 C 68 % 11.25 C
412 30-06-2020 10:15:00 17.3 C 69 % 11.56 C
413 30-06-2020 10:20:00 17.3 C 67 % 11.12 C
414 30-06-2020 10:25:00 17.3 C 67 % 11.12 C
415 30-06-2020 10:30:00 17.3 C 68 % 11.34 C
416 30-06-2020 10:35:00 17.4 C 68 % 11.44 C
417 30-06-2020 10:40:00 17.5 C 67 % 11.31 C
418 30-06-2020 10:45:00 17.4 C 68 % 11.44 C
419 30-06-2020 10:50:00 17.4 C 67 % 11.21 C
420 30-06-2020 10:55:00 17.5 C 66 % 11.08 C
421 30-06-2020 11:00:00 17.5 C 66 % 11.08 C
422 30-06-2020 11:05:00 17.5 C 65 % 10.85 C
423 30-06-2020 11:10:00 17.5 C 67 % 11.31 C
424 30-06-2020 11:15:00 17.6 C 66 % 11.18 C
425 30-06-2020 11:20:00 17.7 C 66 % 11.27 C
Sensor: Nr:Datum:Temp:Feuchte:Taupunkt:
Aussen-T/F 426 30-06-2020 11:25:00 17.8 C 66 % 11.37 C
427 30-06-2020 11:30:00 17.9 C 65 % 11.23 C
428 30-06-2020 11:35:00 17.9 C 66 % 11.46 C
429 30-06-2020 11:40:00 18 C 66 % 11.56 C
430 30-06-2020 11:45:00 18 C 65 % 11.33 C
431 30-06-2020 11:50:00 18.1 C 66 % 11.65 C
432 30-06-2020 11:55:00 18.1 C 65 % 11.42 C
433 30-06-2020 12:00:00 18.1 C 66 % 11.65 C
434 30-06-2020 12:05:00 18.1 C 66 % 11.65 C
435 30-06-2020 12:10:00 18.1 C 66 % 11.65 C
436 30-06-2020 12:15:00 18.1 C 66 % 11.65 C
437 30-06-2020 12:20:00 18.1 C 66 % 11.65 C
438 30-06-2020 12:25:00 18.1 C 65 % 11.42 C
439 30-06-2020 12:30:00 18.1 C 65 % 11.42 C
440 30-06-2020 12:35:00 18.1 C 66 % 11.65 C
441 30-06-2020 12:40:00 18.2 C 67 % 11.98 C
442 30-06-2020 12:45:00 18.4 C 65 % 11.71 C
443 30-06-2020 12:50:00 18.7 C 64 % 11.76 C
444 30-06-2020 12:55:00 18.8 C 64 % 11.85 C
445 30-06-2020 13:00:00 18.9 C 63 % 11.71 C
446 30-06-2020 13:05:00 19.1 C 63 % 11.9 C
447 30-06-2020 13:10:00 19.3 C 63 % 12.09 C
448 30-06-2020 13:15:00 19.4 C 63 % 12.18 C
449 30-06-2020 13:20:00 19.5 C 62 % 12.03 C
450 30-06-2020 13:25:00 19.6 C 62 % 12.13 C
Sensor: Nr:Datum:Temp:Feuchte:Taupunkt:
Aussen-T/F 451 30-06-2020 13:30:00 19.8 C 62 % 12.31 C
452 30-06-2020 13:35:00 19.9 C 61 % 12.16 C
453 30-06-2020 13:40:00 20.1 C 61 % 12.35 C
454 30-06-2020 13:45:00 20.2 C 59 % 11.94 C
455 30-06-2020 13:50:00 20.2 C 60 % 12.19 C
456 30-06-2020 13:55:00 20.3 C 60 % 12.29 C
457 30-06-2020 14:00:00 20.4 C 58 % 11.86 C
458 30-06-2020 14:05:00 20.5 C 59 % 12.22 C
459 30-06-2020 14:10:00 20.5 C 59 % 12.22 C
460 30-06-2020 14:15:00 20.5 C 58 % 11.96 C
461 30-06-2020 14:20:00 20.8 C 58 % 12.24 C
462 30-06-2020 14:25:00 21.1 C 56 % 11.99 C
463 30-06-2020 14:30:00 21.2 C 58 % 12.61 C
464 30-06-2020 14:35:00 21.2 C 57 % 12.35 C
465 30-06-2020 14:40:00 21.1 C 57 % 12.25 C
466 30-06-2020 14:45:00 21 C 55 % 11.62 C
467 30-06-2020 14:50:00 21.2 C 57 % 12.35 C
468 30-06-2020 14:55:00 21.3 C 55 % 11.9 C
469 30-06-2020 15:00:00 21.2 C 55 % 11.81 C
470 30-06-2020 15:05:00 21.3 C 58 % 12.71 C
471 30-06-2020 15:10:00 21.4 C 56 % 12.27 C
472 30-06-2020 15:15:00 21.3 C 56 % 12.17 C
473 30-06-2020 15:20:00 21.4 C 56 % 12.27 C
474 30-06-2020 15:25:00 21.8 C 56 % 12.64 C
475 30-06-2020 15:30:00 22 C 54 % 12.27 C
Sensor: Nr:Datum:Temp:Feuchte:Taupunkt:
Aussen-T/F 476 30-06-2020 15:35:00 21.8 C 55 % 12.36 C
477 30-06-2020 15:40:00 21.7 C 56 % 12.54 C
478 30-06-2020 15:45:00 21.7 C 55 % 12.27 C
479 30-06-2020 15:50:00 21.4 C 56 % 12.27 C
480 30-06-2020 15:55:00 21.3 C 57 % 12.44 C
481 30-06-2020 16:00:00 21.6 C 57 % 12.72 C
482 30-06-2020 16:05:00 21.8 C 57 % 12.91 C
483 30-06-2020 16:10:00 21.7 C 57 % 12.81 C
484 30-06-2020 16:15:00 21.9 C 58 % 13.27 C
485 30-06-2020 16:20:00 22.2 C 55 % 12.73 C
486 30-06-2020 16:25:00 22.4 C 56 % 13.2 C
487 30-06-2020 16:30:00 22.8 C 53 % 12.73 C
488 30-06-2020 16:35:00 22.6 C 53 % 12.54 C
489 30-06-2020 16:40:00 22.4 C 55 % 12.92 C
490 30-06-2020 16:45:00 22.2 C 54 % 12.45 C
491 30-06-2020 16:50:00 22.1 C 56 % 12.92 C
492 30-06-2020 16:55:00 22.2 C 56 % 13.01 C
493 30-06-2020 17:00:00 22.5 C 54 % 12.73 C
494 30-06-2020 17:05:00 22.5 C 56 % 13.29 C
495 30-06-2020 17:10:00 22.8 C 52 % 12.43 C
496 30-06-2020 17:15:00 23 C 52 % 12.62 C
497 30-06-2020 17:20:00 23.4 C 51 % 12.69 C
498 30-06-2020 17:25:00 23.3 C 52 % 12.9 C
499 30-06-2020 17:30:00 23.4 C 51 % 12.69 C
500 30-06-2020 17:35:00 23.3 C 52 % 12.9 C
Sensor: Nr:Datum:Temp:Feuchte:Taupunkt:
Aussen-T/F 501 30-06-2020 17:40:00 23.6 C 52 % 13.17 C
502 30-06-2020 17:45:00 23.9 C 50 % 12.85 C
503 30-06-2020 17:50:00 23.7 C 50 % 12.67 C
504 30-06-2020 17:55:00 23.1 C 52 % 12.71 C
505 30-06-2020 18:00:00 22.7 C 53 % 12.63 C
506 30-06-2020 18:05:00 22.9 C 53 % 12.82 C
507 30-06-2020 18:10:00 23.4 C 52 % 12.99 C
508 30-06-2020 18:15:00 23.6 C 51 % 12.88 C
509 30-06-2020 18:20:00 23.5 C 51 % 12.78 C
510 30-06-2020 18:25:00 23 C 52 % 12.62 C
511 30-06-2020 18:30:00 22.7 C 53 % 12.63 C
512 30-06-2020 18:35:00 22.8 C 52 % 12.43 C
513 30-06-2020 18:40:00 22.5 C 53 % 12.45 C
514 30-06-2020 18:45:00 22.1 C 55 % 12.64 C
515 30-06-2020 18:50:00 21.9 C 56 % 12.73 C
516 30-06-2020 18:55:00 21.7 C 58 % 13.08 C
517 30-06-2020 19:00:00 21.7 C 57 % 12.81 C
518 30-06-2020 19:05:00 21.8 C 57 % 12.91 C
519 30-06-2020 19:10:00 21.6 C 57 % 12.72 C
520 30-06-2020 19:15:00 21.4 C 59 % 13.06 C
521 30-06-2020 19:20:00 21.3 C 59 % 12.97 C
522 30-06-2020 19:25:00 21.3 C 59 % 12.97 C
523 30-06-2020 19:30:00 21.2 C 59 % 12.87 C
524 30-06-2020 19:35:00 21.2 C 60 % 13.13 C
525 30-06-2020 19:40:00 21.1 C 60 % 13.04 C
Sensor: Nr:Datum:Temp:Feuchte:Taupunkt:
Aussen-T/F 526 30-06-2020 19:45:00 21.1 C 60 % 13.04 C
527 30-06-2020 19:50:00 21.1 C 60 % 13.04 C
528 30-06-2020 19:55:00 21.1 C 61 % 13.29 C
529 30-06-2020 20:00:00 21.3 C 61 % 13.48 C
530 30-06-2020 20:05:00 21.4 C 61 % 13.57 C
531 30-06-2020 20:10:00 21.4 C 62 % 13.82 C
532 30-06-2020 20:15:00 21.2 C 61 % 13.38 C
533 30-06-2020 20:20:00 21 C 62 % 13.44 C
534 30-06-2020 20:25:00 20.9 C 62 % 13.35 C
535 30-06-2020 20:30:00 20.8 C 62 % 13.26 C
536 30-06-2020 20:35:00 20.8 C 62 % 13.26 C
537 30-06-2020 20:40:00 20.7 C 63 % 13.41 C
538 30-06-2020 20:45:00 20.7 C 63 % 13.41 C
539 30-06-2020 20:50:00 20.6 C 63 % 13.31 C
540 30-06-2020 20:55:00 20.5 C 63 % 13.22 C
541 30-06-2020 21:00:00 20.4 C 64 % 13.37 C
542 30-06-2020 21:05:00 20.4 C 65 % 13.6 C
543 30-06-2020 21:10:00 20.4 C 66 % 13.84 C
544 30-06-2020 21:15:00 20.3 C 66 % 13.74 C
545 30-06-2020 21:20:00 20.1 C 65 % 13.32 C
546 30-06-2020 21:25:00 20.1 C 67 % 13.78 C
547 30-06-2020 21:30:00 20 C 66 % 13.46 C
548 30-06-2020 21:35:00 19.9 C 68 % 13.82 C
549 30-06-2020 21:40:00 19.9 C 68 % 13.82 C
550 30-06-2020 21:45:00 19.8 C 68 % 13.73 C
Sensor: Nr:Datum:Temp:Feuchte:Taupunkt:
Aussen-T/F 551 30-06-2020 21:50:00 19.7 C 68 % 13.63 C
552 30-06-2020 21:55:00 19.7 C 69 % 13.86 C
553 30-06-2020 22:00:00 19.6 C 70 % 13.98 C
554 30-06-2020 22:05:00 19.4 C 70 % 13.79 C
555 30-06-2020 22:10:00 19.3 C 71 % 13.91 C
556 30-06-2020 22:15:00 19.2 C 71 % 13.82 C
557 30-06-2020 22:20:00 19.1 C 71 % 13.72 C
558 30-06-2020 22:25:00 19 C 72 % 13.84 C
559 30-06-2020 22:30:00 18.9 C 73 % 13.96 C
560 30-06-2020 22:35:00 18.8 C 73 % 13.86 C
561 30-06-2020 22:40:00 18.8 C 73 % 13.86 C
562 30-06-2020 22:45:00 18.8 C 72 % 13.65 C
563 30-06-2020 22:50:00 18.8 C 73 % 13.86 C
564 30-06-2020 22:55:00 18.8 C 72 % 13.65 C
565 30-06-2020 23:00:00 18.9 C 72 % 13.74 C
566 30-06-2020 23:05:00 19 C 72 % 13.84 C
567 30-06-2020 23:10:00 19.1 C 71 % 13.72 C
568 30-06-2020 23:15:00 19.2 C 71 % 13.82 C
569 30-06-2020 23:20:00 19.2 C 72 % 14.03 C
570 30-06-2020 23:25:00 19.2 C 71 % 13.82 C
571 30-06-2020 23:30:00 19.3 C 71 % 13.91 C
572 30-06-2020 23:35:00 19.3 C 71 % 13.91 C
573 30-06-2020 23:40:00 19.3 C 71 % 13.91 C
574 30-06-2020 23:45:00 19.3 C 71 % 13.91 C
575 30-06-2020 23:50:00 19.3 C 71 % 13.91 C
Sensor: Nr:Datum:Temp:Feuchte:Taupunkt:
Aussen-T/F 576 30-06-2020 23:55:00 19.4 C 70 % 13.79 C
577 01-07-2020 00:00:00 19.4 C 70 % 13.79 C
578 01-07-2020 00:05:00 19.4 C 70 % 13.79 C
579 01-07-2020 00:10:00 19.4 C 70 % 13.79 C
580 01-07-2020 00:15:00 19.4 C 70 % 13.79 C
581 01-07-2020 00:20:00 19.4 C 70 % 13.79 C
582 01-07-2020 00:25:00 19.5 C 70 % 13.89 C
583 01-07-2020 00:30:00 19.4 C 70 % 13.79 C
584 01-07-2020 00:35:00 19.4 C 71 % 14.01 C
585 01-07-2020 00:40:00 19.4 C 71 % 14.01 C
586 01-07-2020 00:45:00 19.4 C 71 % 14.01 C
587 01-07-2020 00:50:00 19.4 C 71 % 14.01 C
588 01-07-2020 00:55:00 19.4 C 71 % 14.01 C
589 01-07-2020 01:00:00 19.4 C 71 % 14.01 C
590 01-07-2020 01:05:00 19.3 C 72 % 14.13 C
591 01-07-2020 01:10:00 19.3 C 72 % 14.13 C
592 01-07-2020 01:15:00 19.3 C 72 % 14.13 C
593 01-07-2020 01:20:00 19.2 C 72 % 14.03 C
594 01-07-2020 01:25:00 19.1 C 72 % 13.94 C
595 01-07-2020 01:30:00 19.1 C 73 % 14.15 C
596 01-07-2020 01:35:00 18.9 C 73 % 13.96 C
597 01-07-2020 01:40:00 18.8 C 73 % 13.86 C
598 01-07-2020 01:45:00 18.7 C 74 % 13.97 C
599 01-07-2020 01:50:00 18.7 C 74 % 13.97 C
600 01-07-2020 01:55:00 18.5 C 74 % 13.78 C
Sensor: Nr:Datum:Temp:Feuchte:Taupunkt:
Aussen-T/F 601 01-07-2020 02:00:00 18.4 C 75 % 13.89 C
602 01-07-2020 02:05:00 18.3 C 75 % 13.79 C
603 01-07-2020 02:10:00 18.2 C 76 % 13.9 C
604 01-07-2020 02:15:00 18.2 C 76 % 13.9 C
605 01-07-2020 02:20:00 18.1 C 76 % 13.81 C
606 01-07-2020 02:25:00 18 C 77 % 13.91 C
607 01-07-2020 02:30:00 18 C 76 % 13.71 C
608 01-07-2020 02:35:00 18.1 C 76 % 13.81 C
609 01-07-2020 02:40:00 18.1 C 76 % 13.81 C
610 01-07-2020 02:45:00 18.2 C 76 % 13.9 C
611 01-07-2020 02:50:00 18.2 C 76 % 13.9 C
612 01-07-2020 02:55:00 18.3 C 76 % 14 C
613 01-07-2020 03:00:00 18.2 C 76 % 13.9 C
614 01-07-2020 03:05:00 18.2 C 76 % 13.9 C
615 01-07-2020 03:10:00 18.2 C 77 % 14.1 C
616 01-07-2020 03:15:00 18.1 C 77 % 14.01 C
617 01-07-2020 03:20:00 17.9 C 77 % 13.81 C
618 01-07-2020 03:25:00 17.8 C 78 % 13.91 C
619 01-07-2020 03:30:00 17.7 C 78 % 13.82 C
620 01-07-2020 03:35:00 17.6 C 79 % 13.92 C
621 01-07-2020 03:40:00 17.5 C 80 % 14.01 C
622 01-07-2020 03:45:00 17.4 C 80 % 13.92 C
623 01-07-2020 03:50:00 17.4 C 80 % 13.92 C
624 01-07-2020 03:55:00 17.4 C 80 % 13.92 C
625 01-07-2020 04:00:00 17.4 C 80 % 13.92 C
Sensor: Nr:Datum:Temp:Feuchte:Taupunkt:
Aussen-T/F 626 01-07-2020 04:05:00 17.4 C 80 % 13.92 C
627 01-07-2020 04:10:00 17.3 C 80 % 13.82 C
628 01-07-2020 04:15:00 17.3 C 80 % 13.82 C
629 01-07-2020 04:20:00 17.3 C 80 % 13.82 C
630 01-07-2020 04:25:00 17.2 C 81 % 13.91 C
631 01-07-2020 04:30:00 17.2 C 80 % 13.72 C
632 01-07-2020 04:35:00 17.1 C 81 % 13.82 C
633 01-07-2020 04:40:00 17.1 C 81 % 13.82 C
634 01-07-2020 04:45:00 16.9 C 82 % 13.81 C
635 01-07-2020 04:50:00 16.9 C 82 % 13.81 C
636 01-07-2020 04:55:00 16.8 C 82 % 13.71 C
637 01-07-2020 05:00:00 16.8 C 82 % 13.71 C
638 01-07-2020 05:05:00 16.8 C 82 % 13.71 C
639 01-07-2020 05:10:00 16.8 C 82 % 13.71 C
640 01-07-2020 05:15:00 16.8 C 83 % 13.9 C
641 01-07-2020 05:20:00 16.8 C 83 % 13.9 C
642 01-07-2020 05:25:00 16.7 C 83 % 13.8 C
643 01-07-2020 05:30:00 16.6 C 83 % 13.7 C
644 01-07-2020 05:35:00 16.5 C 83 % 13.6 C
645 01-07-2020 05:40:00 16.3 C 84 % 13.59 C
646 01-07-2020 05:45:00 16.2 C 84 % 13.5 C
647 01-07-2020 05:50:00 16.1 C 85 % 13.58 C
648 01-07-2020 05:55:00 16.1 C 85 % 13.58 C
649 01-07-2020 06:00:00 16 C 86 % 13.66 C
650 01-07-2020 06:05:00 15.9 C 86 % 13.56 C
Sensor: Nr:Datum:Temp:Feuchte:Taupunkt:
Aussen-T/F 651 01-07-2020 06:10:00 15.8 C 86 % 13.46 C
652 01-07-2020 06:15:00 15.8 C 87 % 13.64 C
653 01-07-2020 06:20:00 15.7 C 87 % 13.54 C
654 01-07-2020 06:25:00 15.7 C 87 % 13.54 C
655 01-07-2020 06:30:00 15.7 C 87 % 13.54 C
656 01-07-2020 06:35:00 15.6 C 88 % 13.62 C
657 01-07-2020 06:40:00 15.6 C 88 % 13.62 C
658 01-07-2020 06:45:00 15.6 C 88 % 13.62 C
659 01-07-2020 06:50:00 15.6 C 88 % 13.62 C
660 01-07-2020 06:55:00 15.6 C 89 % 13.79 C
661 01-07-2020 07:00:00 15.7 C 89 % 13.89 C
662 01-07-2020 07:05:00 15.7 C 90 % 14.06 C
663 01-07-2020 07:10:00 15.9 C 90 % 14.26 C
664 01-07-2020 07:15:00 16.1 C 89 % 14.29 C
665 01-07-2020 07:20:00 16.3 C 89 % 14.48 C
666 01-07-2020 07:25:00 16.5 C 89 % 14.68 C
667 01-07-2020 07:30:00 16.7 C 89 % 14.88 C
668 01-07-2020 07:35:00 17.1 C 87 % 14.92 C
669 01-07-2020 07:40:00 17.2 C 86 % 14.84 C
670 01-07-2020 07:45:00 17.4 C 85 % 14.85 C
671 01-07-2020 07:50:00 17.6 C 84 % 14.87 C
672 01-07-2020 07:55:00 17.9 C 82 % 14.78 C
673 01-07-2020 08:00:00 18.2 C 81 % 14.89 C
674 01-07-2020 08:05:00 18.4 C 80 % 14.89 C
675 01-07-2020 08:10:00 18.6 C 80 % 15.08 C
Sensor: Nr:Datum:Temp:Feuchte:Taupunkt:
Aussen-T/F 676 01-07-2020 08:15:00 18.7 C 79 % 14.99 C
677 01-07-2020 08:20:00 18.8 C 79 % 15.08 C
678 01-07-2020 08:25:00 19 C 79 % 15.28 C
679 01-07-2020 08:30:00 19.2 C 78 % 15.27 C
680 01-07-2020 08:35:00 19.3 C 78 % 15.37 C
681 01-07-2020 08:40:00 19.5 C 77 % 15.36 C
682 01-07-2020 08:45:00 19.7 C 77 % 15.56 C
683 01-07-2020 08:50:00 19.8 C 77 % 15.65 C
684 01-07-2020 08:55:00 19.9 C 76 % 15.54 C
685 01-07-2020 09:00:00 20.1 C 76 % 15.74 C
686 01-07-2020 09:05:00 20.3 C 75 % 15.72 C
687 01-07-2020 09:10:00 20.3 C 75 % 15.72 C
688 01-07-2020 09:15:00 20.6 C 76 % 16.22 C
689 01-07-2020 09:20:00 20.8 C 75 % 16.21 C
690 01-07-2020 09:25:00 21.1 C 74 % 16.29 C
691 01-07-2020 09:30:00 21.2 C 74 % 16.38 C
692 01-07-2020 09:35:00 21.2 C 73 % 16.17 C
693 01-07-2020 09:40:00 21.2 C 74 % 16.38 C
694 01-07-2020 09:45:00 21.3 C 74 % 16.48 C
695 01-07-2020 09:50:00 21.3 C 73 % 16.26 C
696 01-07-2020 09:55:00 21.3 C 73 % 16.26 C
697 01-07-2020 10:00:00 21.4 C 74 % 16.57 C
698 01-07-2020 10:05:00 21.4 C 73 % 16.36 C
699 01-07-2020 10:10:00 21.5 C 74 % 16.67 C
700 01-07-2020 10:15:00 21.6 C 74 % 16.77 C
Sensor: Nr:Datum:Temp:Feuchte:Taupunkt:
Aussen-T/F 701 01-07-2020 10:20:00 21.7 C 72 % 16.43 C
702 01-07-2020 10:25:00 21.6 C 73 % 16.55 C
703 01-07-2020 10:30:00 21.6 C 73 % 16.55 C
704 01-07-2020 10:35:00 21.6 C 73 % 16.55 C
705 01-07-2020 10:40:00 21.6 C 73 % 16.55 C
706 01-07-2020 10:45:00 21.6 C 73 % 16.55 C
707 01-07-2020 10:50:00 21.5 C 73 % 16.46 C
708 01-07-2020 10:55:00 21.5 C 73 % 16.46 C
709 01-07-2020 11:00:00 21.6 C 73 % 16.55 C
710 01-07-2020 11:05:00 21.7 C 73 % 16.65 C
711 01-07-2020 11:10:00 21.7 C 71 % 16.21 C
712 01-07-2020 11:15:00 21.7 C 71 % 16.21 C
713 01-07-2020 11:20:00 21.8 C 71 % 16.31 C
714 01-07-2020 11:25:00 21.9 C 72 % 16.62 C
715 01-07-2020 11:30:00 22.1 C 72 % 16.82 C
716 01-07-2020 11:35:00 22.3 C 72 % 17.01 C
717 01-07-2020 11:40:00 22.4 C 70 % 16.66 C
718 01-07-2020 11:45:00 22.6 C 70 % 16.85 C
719 01-07-2020 11:50:00 22.7 C 69 % 16.72 C
720 01-07-2020 11:55:00 23 C 69 % 17.01 C
721 01-07-2020 12:00:00 23.2 C 67 % 16.73 C
722 01-07-2020 12:05:00 23.3 C 67 % 16.83 C
723 01-07-2020 12:10:00 23.4 C 66 % 16.69 C
724 01-07-2020 12:15:00 23.6 C 65 % 16.64 C
725 01-07-2020 12:20:00 23.4 C 66 % 16.69 C
Sensor: Nr:Datum:Temp:Feuchte:Taupunkt:
Aussen-T/F 726 01-07-2020 12:25:00 23.6 C 65 % 16.64 C
727 01-07-2020 12:30:00 23.6 C 66 % 16.88 C
728 01-07-2020 12:35:00 23.7 C 65 % 16.73 C
729 01-07-2020 12:40:00 23.7 C 64 % 16.49 C
730 01-07-2020 12:45:00 23.8 C 65 % 16.83 C
731 01-07-2020 12:50:00 23.8 C 64 % 16.58 C
732 01-07-2020 12:55:00 23.7 C 64 % 16.49 C
733 01-07-2020 13:00:00 23.9 C 65 % 16.92 C
734 01-07-2020 13:05:00 24.1 C 65 % 17.11 C
735 01-07-2020 13:10:00 24.2 C 64 % 16.96 C
736 01-07-2020 13:15:00 24.2 C 63 % 16.71 C
737 01-07-2020 13:20:00 24.2 C 64 % 16.96 C
738 01-07-2020 13:25:00 24.1 C 64 % 16.86 C
739 01-07-2020 13:30:00 24.1 C 64 % 16.86 C
740 01-07-2020 13:35:00 24 C 64 % 16.77 C
741 01-07-2020 13:40:00 24.1 C 64 % 16.86 C
742 01-07-2020 13:45:00 24.1 C 64 % 16.86 C
743 01-07-2020 13:50:00 24 C 64 % 16.77 C
744 01-07-2020 13:55:00 24.1 C 64 % 16.86 C
745 01-07-2020 14:00:00 24.3 C 63 % 16.81 C
746 01-07-2020 14:05:00 24.6 C 62 % 16.84 C
747 01-07-2020 14:10:00 24.6 C 62 % 16.84 C
748 01-07-2020 14:15:00 24.3 C 62 % 16.55 C
749 01-07-2020 14:20:00 24.4 C 63 % 16.9 C
750 01-07-2020 14:25:00 24.7 C 61 % 16.67 C
Sensor: Nr:Datum:Temp:Feuchte:Taupunkt:
Aussen-T/F 751 01-07-2020 14:30:00 25.1 C 61 % 17.05 C
752 01-07-2020 14:35:00 25.2 C 61 % 17.14 C
753 01-07-2020 14:40:00 25.1 C 61 % 17.05 C
754 01-07-2020 14:45:00 24.7 C 63 % 17.18 C
755 01-07-2020 14:50:00 24.8 C 63 % 17.28 C
756 01-07-2020 14:55:00 24.6 C 64 % 17.34 C
757 01-07-2020 15:00:00 24.5 C 62 % 16.74 C
758 01-07-2020 15:05:00 24.4 C 63 % 16.9 C
759 01-07-2020 15:10:00 24.4 C 63 % 16.9 C
760 01-07-2020 15:15:00 24.4 C 63 % 16.9 C
761 01-07-2020 15:20:00 24.4 C 63 % 16.9 C
762 01-07-2020 15:25:00 24.6 C 63 % 17.09 C
763 01-07-2020 15:30:00 24.8 C 63 % 17.28 C
764 01-07-2020 15:35:00 24.8 C 62 % 17.02 C
765 01-07-2020 15:40:00 24.9 C 63 % 17.37 C
766 01-07-2020 15:45:00 25.1 C 62 % 17.31 C
767 01-07-2020 15:50:00 25.2 C 62 % 17.4 C
768 01-07-2020 15:55:00 25.2 C 60 % 16.88 C
769 01-07-2020 16:00:00 25.2 C 61 % 17.14 C
770 01-07-2020 16:05:00 25.3 C 62 % 17.5 C
771 01-07-2020 16:10:00 25.3 C 62 % 17.5 C
772 01-07-2020 16:15:00 25.2 C 60 % 16.88 C
773 01-07-2020 16:20:00 24.9 C 61 % 16.86 C
774 01-07-2020 16:25:00 24.7 C 62 % 16.93 C
775 01-07-2020 16:30:00 24.8 C 63 % 17.28 C
Sensor: Nr:Datum:Temp:Feuchte:Taupunkt:
Aussen-T/F 776 01-07-2020 16:35:00 24.9 C 63 % 17.37 C
777 01-07-2020 16:40:00 25.3 C 62 % 17.5 C
778 01-07-2020 16:45:00 25.6 C 62 % 17.78 C
779 01-07-2020 16:50:00 25.7 C 60 % 17.35 C
780 01-07-2020 16:55:00 25.6 C 60 % 17.26 C
781 01-07-2020 17:00:00 25.4 C 60 % 17.07 C
782 01-07-2020 17:05:00 25.3 C 61 % 17.24 C
783 01-07-2020 17:10:00 25.3 C 61 % 17.24 C
784 01-07-2020 17:15:00 25.4 C 62 % 17.59 C
785 01-07-2020 17:20:00 25.6 C 59 % 16.99 C
786 01-07-2020 17:25:00 25.3 C 61 % 17.24 C
787 01-07-2020 17:30:00 25.5 C 60 % 17.16 C
788 01-07-2020 17:35:00 25.9 C 59 % 17.27 C
789 01-07-2020 17:40:00 26.4 C 58 % 17.47 C
790 01-07-2020 17:45:00 26.2 C 56 % 16.73 C
791 01-07-2020 17:50:00 25.7 C 57 % 16.54 C
792 01-07-2020 17:55:00 25.4 C 59 % 16.81 C
793 01-07-2020 18:00:00 25.4 C 60 % 17.07 C
794 01-07-2020 18:05:00 25.3 C 59 % 16.71 C
795 01-07-2020 18:10:00 25.3 C 58 % 16.44 C
796 01-07-2020 18:15:00 25.2 C 59 % 16.62 C
797 01-07-2020 18:20:00 25.1 C 59 % 16.52 C
798 01-07-2020 18:25:00 25.2 C 60 % 16.88 C
799 01-07-2020 18:30:00 25.1 C 59 % 16.52 C
800 01-07-2020 18:35:00 24.9 C 60 % 16.6 C
Sensor: Nr:Datum:Temp:Feuchte:Taupunkt:
Aussen-T/F 801 01-07-2020 18:40:00 24.8 C 61 % 16.77 C
802 01-07-2020 18:45:00 24.8 C 61 % 16.77 C
803 01-07-2020 18:50:00 24.8 C 61 % 16.77 C
804 01-07-2020 18:55:00 24.8 C 61 % 16.77 C
805 01-07-2020 19:00:00 24.7 C 61 % 16.67 C
806 01-07-2020 19:05:00 24.6 C 61 % 16.58 C
807 01-07-2020 19:10:00 24.5 C 62 % 16.74 C
808 01-07-2020 19:15:00 24.5 C 63 % 16.99 C
809 01-07-2020 19:20:00 24.6 C 62 % 16.84 C
810 01-07-2020 19:25:00 24.7 C 62 % 16.93 C
811 01-07-2020 19:30:00 24.8 C 61 % 16.77 C
812 01-07-2020 19:35:00 24.6 C 62 % 16.84 C
813 01-07-2020 19:40:00 24.4 C 63 % 16.9 C
814 01-07-2020 19:45:00 24.3 C 62 % 16.55 C
815 01-07-2020 19:50:00 24.3 C 63 % 16.81 C
816 01-07-2020 19:55:00 24.2 C 64 % 16.96 C
817 01-07-2020 20:00:00 24.2 C 64 % 16.96 C
818 01-07-2020 20:05:00 24.1 C 64 % 16.86 C
819 01-07-2020 20:10:00 24.1 C 64 % 16.86 C
820 01-07-2020 20:15:00 24.1 C 65 % 17.11 C
821 01-07-2020 20:20:00 24.2 C 63 % 16.71 C
822 01-07-2020 20:25:00 24.4 C 63 % 16.9 C
823 01-07-2020 20:30:00 24.7 C 62 % 16.93 C
824 01-07-2020 20:35:00 24.8 C 61 % 16.77 C
825 01-07-2020 20:40:00 24.9 C 62 % 17.12 C
Sensor: Nr:Datum:Temp:Feuchte:Taupunkt:
Aussen-T/F 826 01-07-2020 20:45:00 25 C 61 % 16.96 C
827 01-07-2020 20:50:00 25.1 C 61 % 17.05 C
828 01-07-2020 20:55:00 24.8 C 61 % 16.77 C
829 01-07-2020 21:00:00 24.4 C 62 % 16.65 C
830 01-07-2020 21:05:00 24.2 C 63 % 16.71 C
831 01-07-2020 21:10:00 23.9 C 64 % 16.68 C
832 01-07-2020 21:15:00 23.7 C 65 % 16.73 C
833 01-07-2020 21:20:00 23.6 C 65 % 16.64 C
834 01-07-2020 21:25:00 23.3 C 66 % 16.59 C
835 01-07-2020 21:30:00 23.2 C 66 % 16.5 C
836 01-07-2020 21:35:00 23 C 67 % 16.54 C
837 01-07-2020 21:40:00 22.8 C 67 % 16.35 C
838 01-07-2020 21:45:00 22.7 C 68 % 16.49 C
839 01-07-2020 21:50:00 22.7 C 68 % 16.49 C
840 01-07-2020 21:55:00 22.6 C 68 % 16.39 C
841 01-07-2020 22:00:00 22.6 C 69 % 16.62 C
842 01-07-2020 22:05:00 22.6 C 69 % 16.62 C
843 01-07-2020 22:10:00 22.4 C 70 % 16.66 C
844 01-07-2020 22:15:00 22.3 C 70 % 16.56 C
845 01-07-2020 22:20:00 22.2 C 70 % 16.47 C
846 01-07-2020 22:25:00 22.2 C 71 % 16.69 C
847 01-07-2020 22:30:00 22.1 C 71 % 16.6 C
848 01-07-2020 22:35:00 22 C 72 % 16.72 C
849 01-07-2020 22:40:00 21.9 C 72 % 16.62 C
850 01-07-2020 22:45:00 21.8 C 73 % 16.75 C
Sensor: Nr:Datum:Temp:Feuchte:Taupunkt:
Aussen-T/F 851 01-07-2020 22:50:00 21.7 C 73 % 16.65 C
852 01-07-2020 22:55:00 21.7 C 73 % 16.65 C
853 01-07-2020 23:00:00 21.7 C 75 % 17.07 C
854 01-07-2020 23:05:00 21.4 C 76 % 16.99 C
855 01-07-2020 23:10:00 21 C 78 % 17.02 C
856 01-07-2020 23:15:00 20.7 C 80 % 17.13 C
857 01-07-2020 23:20:00 20.2 C 82 % 17.03 C
858 01-07-2020 23:25:00 19.5 C 84 % 16.72 C
859 01-07-2020 23:30:00 18.9 C 87 % 16.69 C
860 01-07-2020 23:35:00 18.6 C 88 % 16.57 C
861 01-07-2020 23:40:00 18.3 C 89 % 16.46 C
862 01-07-2020 23:45:00 18.2 C 90 % 16.53 C
863 01-07-2020 23:50:00 18.1 C 90 % 16.43 C
864 01-07-2020 23:55:00 18 C 91 % 16.51 C
865 02-07-2020 00:00:00 17.9 C 92 % 16.58 C
866 02-07-2020 00:05:00 17.9 C 92 % 16.58 C
867 02-07-2020 00:10:00 17.9 C 92 % 16.58 C
868 02-07-2020 00:15:00 17.9 C 92 % 16.58 C
869 02-07-2020 00:20:00 17.9 C 93 % 16.75 C
870 02-07-2020 00:25:00 17.8 C 93 % 16.65 C
871 02-07-2020 00:30:00 17.8 C 93 % 16.65 C
872 02-07-2020 00:35:00 17.8 C 93 % 16.65 C
873 02-07-2020 00:40:00 17.8 C 93 % 16.65 C
874 02-07-2020 00:45:00 17.8 C 93 % 16.65 C
875 02-07-2020 00:50:00 17.8 C 93 % 16.65 C
Sensor: Nr:Datum:Temp:Feuchte:Taupunkt:
Aussen-T/F 876 02-07-2020 00:55:00 17.7 C 93 % 16.55 C
877 02-07-2020 01:00:00 17.7 C 93 % 16.55 C
878 02-07-2020 01:05:00 17.7 C 93 % 16.55 C
879 02-07-2020 01:10:00 17.7 C 94 % 16.72 C
880 02-07-2020 01:15:00 17.7 C 94 % 16.72 C
881 02-07-2020 01:20:00 17.8 C 94 % 16.82 C
882 02-07-2020 01:25:00 17.7 C 94 % 16.72 C
883 02-07-2020 01:30:00 17.7 C 94 % 16.72 C
884 02-07-2020 01:35:00 17.7 C 94 % 16.72 C
885 02-07-2020 01:40:00 17.8 C 94 % 16.82 C
886 02-07-2020 01:45:00 17.7 C 94 % 16.72 C
887 02-07-2020 01:50:00 17.7 C 94 % 16.72 C
888 02-07-2020 01:55:00 17.7 C 94 % 16.72 C
889 02-07-2020 02:00:00 17.7 C 94 % 16.72 C
890 02-07-2020 02:05:00 17.7 C 94 % 16.72 C
891 02-07-2020 02:10:00 17.6 C 94 % 16.62 C
892 02-07-2020 02:15:00 17.6 C 94 % 16.62 C
893 02-07-2020 02:20:00 17.6 C 94 % 16.62 C
894 02-07-2020 02:25:00 17.5 C 94 % 16.52 C
895 02-07-2020 02:30:00 17.4 C 95 % 16.59 C
896 02-07-2020 02:35:00 17.4 C 94 % 16.42 C
897 02-07-2020 02:40:00 17.3 C 94 % 16.33 C
898 02-07-2020 02:45:00 17.3 C 94 % 16.33 C
899 02-07-2020 02:50:00 17.3 C 95 % 16.49 C
900 02-07-2020 02:55:00 17.2 C 95 % 16.39 C
Sensor: Nr:Datum:Temp:Feuchte:Taupunkt:
Aussen-T/F 901 02-07-2020 03:00:00 17.1 C 95 % 16.29 C
902 02-07-2020 03:05:00 16.9 C 94 % 15.93 C
903 02-07-2020 03:10:00 16.8 C 94 % 15.83 C
904 02-07-2020 03:15:00 16.7 C 95 % 15.9 C
905 02-07-2020 03:20:00 16.7 C 95 % 15.9 C
906 02-07-2020 03:25:00 16.6 C 95 % 15.8 C
907 02-07-2020 03:30:00 16.5 C 95 % 15.7 C
908 02-07-2020 03:35:00 16.4 C 95 % 15.6 C
909 02-07-2020 03:40:00 16.3 C 94 % 15.33 C
910 02-07-2020 03:45:00 16.2 C 94 % 15.23 C
911 02-07-2020 03:50:00 16.1 C 95 % 15.3 C
912 02-07-2020 03:55:00 16 C 95 % 15.2 C
913 02-07-2020 04:00:00 15.9 C 95 % 15.1 C
914 02-07-2020 04:05:00 15.9 C 95 % 15.1 C
915 02-07-2020 04:10:00 15.8 C 95 % 15 C
916 02-07-2020 04:15:00 15.8 C 95 % 15 C
917 02-07-2020 04:20:00 15.7 C 95 % 14.9 C
918 02-07-2020 04:25:00 15.7 C 95 % 14.9 C
919 02-07-2020 04:30:00 15.7 C 95 % 14.9 C
920 02-07-2020 04:35:00 15.7 C 95 % 14.9 C
921 02-07-2020 04:40:00 15.7 C 95 % 14.9 C
922 02-07-2020 04:45:00 15.6 C 95 % 14.8 C
923 02-07-2020 04:50:00 15.6 C 95 % 14.8 C
924 02-07-2020 04:55:00 15.5 C 95 % 14.7 C
925 02-07-2020 05:00:00 15.4 C 95 % 14.6 C
Sensor: Nr:Datum:Temp:Feuchte:Taupunkt:
Aussen-T/F 926 02-07-2020 05:05:00 15.3 C 95 % 14.5 C
927 02-07-2020 05:10:00 15.2 C 95 % 14.4 C
928 02-07-2020 05:15:00 15.2 C 95 % 14.4 C
929 02-07-2020 05:20:00 15.1 C 95 % 14.31 C
930 02-07-2020 05:25:00 15 C 95 % 14.21 C
931 02-07-2020 05:30:00 14.9 C 95 % 14.11 C
932 02-07-2020 05:35:00 14.9 C 95 % 14.11 C
933 02-07-2020 05:40:00 14.9 C 95 % 14.11 C
934 02-07-2020 05:45:00 14.8 C 95 % 14.01 C
935 02-07-2020 05:50:00 14.9 C 96 % 14.27 C
936 02-07-2020 05:55:00 15 C 96 % 14.37 C
937 02-07-2020 06:00:00 15.1 C 96 % 14.47 C
938 02-07-2020 06:05:00 15.2 C 96 % 14.57 C
939 02-07-2020 06:10:00 15.3 C 96 % 14.67 C
940 02-07-2020 06:15:00 15.3 C 96 % 14.67 C
941 02-07-2020 06:20:00 15.4 C 96 % 14.77 C
942 02-07-2020 06:25:00 15.6 C 96 % 14.96 C
943 02-07-2020 06:30:00 15.6 C 96 % 14.96 C
944 02-07-2020 06:35:00 15.7 C 96 % 15.06 C
945 02-07-2020 06:40:00 15.8 C 96 % 15.16 C
946 02-07-2020 06:45:00 15.9 C 97 % 15.42 C
947 02-07-2020 06:50:00 15.9 C 97 % 15.42 C
948 02-07-2020 06:55:00 16.1 C 96 % 15.46 C
949 02-07-2020 07:00:00 16.2 C 96 % 15.56 C
950 02-07-2020 07:05:00 16.2 C 96 % 15.56 C
Sensor: Nr:Datum:Temp:Feuchte:Taupunkt:
Aussen-T/F 951 02-07-2020 07:10:00 16.2 C 97 % 15.72 C
952 02-07-2020 07:15:00 16.3 C 97 % 15.82 C
953 02-07-2020 07:20:00 16.3 C 97 % 15.82 C
954 02-07-2020 07:25:00 16.5 C 97 % 16.02 C
955 02-07-2020 07:30:00 16.6 C 97 % 16.12 C
956 02-07-2020 07:35:00 16.7 C 97 % 16.22 C
957 02-07-2020 07:40:00 16.7 C 97 % 16.22 C
958 02-07-2020 07:45:00 16.7 C 97 % 16.22 C
959 02-07-2020 07:50:00 16.7 C 97 % 16.22 C
960 02-07-2020 07:55:00 16.6 C 96 % 15.96 C
961 02-07-2020 08:00:00 16.6 C 96 % 15.96 C
962 02-07-2020 08:05:00 16.5 C 96 % 15.86 C
963 02-07-2020 08:10:00 16.4 C 96 % 15.76 C
964 02-07-2020 08:15:00 16.4 C 96 % 15.76 C
965 02-07-2020 08:20:00 16.4 C 96 % 15.76 C
966 02-07-2020 08:25:00 16.3 C 96 % 15.66 C
967 02-07-2020 08:30:00 16.4 C 96 % 15.76 C
968 02-07-2020 08:35:00 16.5 C 97 % 16.02 C
969 02-07-2020 08:40:00 16.6 C 97 % 16.12 C
970 02-07-2020 08:45:00 16.7 C 97 % 16.22 C
971 02-07-2020 08:50:00 16.9 C 97 % 16.42 C
972 02-07-2020 08:55:00 17.1 C 97 % 16.62 C
973 02-07-2020 09:00:00 17.2 C 97 % 16.72 C
974 02-07-2020 09:05:00 17.4 C 97 % 16.92 C
975 02-07-2020 09:10:00 17.6 C 97 % 17.12 C
Sensor: Nr:Datum:Temp:Feuchte:Taupunkt:
Aussen-T/F 976 02-07-2020 09:15:00 17.7 C 97 % 17.22 C
977 02-07-2020 09:20:00 17.8 C 97 % 17.32 C
978 02-07-2020 09:25:00 18.1 C 97 % 17.62 C
979 02-07-2020 09:30:00 18.1 C 97 % 17.62 C
980 02-07-2020 09:35:00 18.1 C 97 % 17.62 C
981 02-07-2020 09:40:00 18.3 C 97 % 17.82 C
982 02-07-2020 09:45:00 18.4 C 97 % 17.91 C
983 02-07-2020 09:50:00 18.5 C 97 % 18.01 C
984 02-07-2020 09:55:00 18.6 C 97 % 18.11 C
985 02-07-2020 10:00:00 18.7 C 97 % 18.21 C
986 02-07-2020 10:05:00 18.6 C 97 % 18.11 C
987 02-07-2020 10:10:00 18.3 C 96 % 17.65 C
988 02-07-2020 10:15:00 18.3 C 96 % 17.65 C
989 02-07-2020 10:20:00 18.5 C 96 % 17.85 C
990 02-07-2020 10:25:00 18.7 C 96 % 18.05 C
991 02-07-2020 10:30:00 18.7 C 94 % 17.71 C
992 02-07-2020 10:35:00 18.8 C 93 % 17.64 C
993 02-07-2020 10:40:00 19 C 94 % 18.01 C
994 02-07-2020 10:45:00 19.2 C 91 % 17.69 C
995 02-07-2020 10:50:00 19.6 C 91 % 18.09 C
996 02-07-2020 10:55:00 19.9 C 85 % 17.3 C
997 02-07-2020 11:00:00 20.3 C 85 % 17.7 C
998 02-07-2020 11:05:00 20.6 C 85 % 17.99 C
999 02-07-2020 11:10:00 20.7 C 81 % 17.32 C
1000 02-07-2020 11:15:00 20.7 C 78 % 16.73 C
Sensor: Nr:Datum:Temp:Feuchte:Taupunkt:
Aussen-T/F 1001 02-07-2020 11:20:00 20.7 C 80 % 17.13 C
1002 02-07-2020 11:25:00 20.8 C 76 % 16.41 C
1003 02-07-2020 11:30:00 21.1 C 75 % 16.5 C
1004 02-07-2020 11:35:00 21.3 C 73 % 16.26 C
1005 02-07-2020 11:40:00 21.6 C 72 % 16.34 C
1006 02-07-2020 11:45:00 21.7 C 70 % 15.99 C
1007 02-07-2020 11:50:00 21.8 C 71 % 16.31 C
1008 02-07-2020 11:55:00 21.6 C 69 % 15.67 C
1009 02-07-2020 12:00:00 21.3 C 70 % 15.61 C
1010 02-07-2020 12:05:00 21.2 C 71 % 15.73 C
1011 02-07-2020 12:10:00 21.1 C 72 % 15.86 C
1012 02-07-2020 12:15:00 21.4 C 69 % 15.48 C
1013 02-07-2020 12:20:00 21.7 C 61 % 13.85 C
1014 02-07-2020 12:25:00 21.8 C 62 % 14.2 C
1015 02-07-2020 12:30:00 21.8 C 62 % 14.2 C
1016 02-07-2020 12:35:00 22.1 C 61 % 14.23 C
1017 02-07-2020 12:40:00 22.4 C 61 % 14.51 C
1018 02-07-2020 12:45:00 22.6 C 61 % 14.7 C
1019 02-07-2020 12:50:00 22.7 C 61 % 14.79 C
1020 02-07-2020 12:55:00 22.7 C 61 % 14.79 C
1021 02-07-2020 13:00:00 22.7 C 58 % 14.01 C
1022 02-07-2020 13:05:00 22.6 C 57 % 13.65 C
1023 02-07-2020 13:10:00 22.7 C 59 % 14.28 C
1024 02-07-2020 13:15:00 22.9 C 56 % 13.66 C
1025 02-07-2020 13:20:00 23.3 C 58 % 14.58 C
Sensor: Nr:Datum:Temp:Feuchte:Taupunkt:
Aussen-T/F 1026 02-07-2020 13:25:00 23.7 C 54 % 13.84 C
1027 02-07-2020 13:30:00 23.8 C 61 % 15.83 C
1028 02-07-2020 13:35:00 23.2 C 64 % 16.01 C
1029 02-07-2020 13:40:00 22.3 C 66 % 15.64 C
1030 02-07-2020 13:45:00 21.6 C 68 % 15.44 C
1031 02-07-2020 13:50:00 21.2 C 69 % 15.29 C
1032 02-07-2020 13:55:00 20.9 C 71 % 15.45 C
1033 02-07-2020 14:00:00 20.9 C 71 % 15.45 C
1034 02-07-2020 14:05:00 20.8 C 71 % 15.35 C
1035 02-07-2020 14:10:00 20.8 C 71 % 15.35 C
1036 02-07-2020 14:15:00 20.7 C 71 % 15.25 C
1037 02-07-2020 14:20:00 20.7 C 71 % 15.25 C
1038 02-07-2020 14:25:00 20.6 C 76 % 16.22 C
1039 02-07-2020 14:30:00 20.6 C 78 % 16.63 C
1040 02-07-2020 14:35:00 20.4 C 77 % 16.23 C
1041 02-07-2020 14:40:00 20.3 C 76 % 15.93 C
1042 02-07-2020 14:45:00 20.3 C 79 % 16.54 C
1043 02-07-2020 14:50:00 20.3 C 75 % 15.72 C
1044 02-07-2020 14:55:00 20.6 C 74 % 15.8 C
1045 02-07-2020 15:00:00 20.9 C 72 % 15.66 C
1046 02-07-2020 15:05:00 21.2 C 70 % 15.51 C
1047 02-07-2020 15:10:00 21.3 C 70 % 15.61 C
1048 02-07-2020 15:15:00 21.3 C 69 % 15.38 C
1049 02-07-2020 15:20:00 21.2 C 69 % 15.29 C
1050 02-07-2020 15:25:00 21.1 C 69 % 15.19 C
Sensor: Nr:Datum:Temp:Feuchte:Taupunkt:
Aussen-T/F 1051 02-07-2020 15:30:00 21.1 C 69 % 15.19 C
1052 02-07-2020 15:35:00 20.9 C 70 % 15.23 C
1053 02-07-2020 15:40:00 20.9 C 70 % 15.23 C
1054 02-07-2020 15:45:00 20.9 C 71 % 15.45 C
1055 02-07-2020 15:50:00 21 C 70 % 15.32 C
1056 02-07-2020 15:55:00 21.1 C 69 % 15.19 C
1057 02-07-2020 16:00:00 21.3 C 69 % 15.38 C
1058 02-07-2020 16:05:00 21.7 C 67 % 15.31 C
1059 02-07-2020 16:10:00 21.8 C 68 % 15.63 C
1060 02-07-2020 16:15:00 21.8 C 69 % 15.86 C
1061 02-07-2020 16:20:00 21.8 C 67 % 15.4 C
1062 02-07-2020 16:25:00 21.9 C 66 % 15.26 C
1063 02-07-2020 16:30:00 22.1 C 68 % 15.92 C
1064 02-07-2020 16:35:00 22.2 C 65 % 15.31 C
1065 02-07-2020 16:40:00 22 C 65 % 15.12 C
1066 02-07-2020 16:45:00 21.8 C 68 % 15.63 C
1067 02-07-2020 16:50:00 21.8 C 71 % 16.31 C
1068 02-07-2020 16:55:00 21.7 C 68 % 15.54 C
1069 02-07-2020 17:00:00 21.9 C 67 % 15.5 C
1070 02-07-2020 17:05:00 22.1 C 69 % 16.15 C
1071 02-07-2020 17:10:00 22.3 C 61 % 14.42 C
1072 02-07-2020 17:15:00 22.5 C 61 % 14.61 C
1073 02-07-2020 17:20:00 22.7 C 59 % 14.28 C
1074 02-07-2020 17:25:00 22.7 C 58 % 14.01 C
1075 02-07-2020 17:30:00 22.7 C 61 % 14.79 C
Sensor: Nr:Datum:Temp:Feuchte:Taupunkt:
Aussen-T/F 1076 02-07-2020 17:35:00 23.2 C 61 % 15.26 C
1077 02-07-2020 17:40:00 23.8 C 58 % 15.04 C
1078 02-07-2020 17:45:00 24 C 54 % 14.12 C
1079 02-07-2020 17:50:00 23.5 C 55 % 13.94 C
1080 02-07-2020 17:55:00 22.9 C 55 % 13.38 C
1081 02-07-2020 18:00:00 22.8 C 56 % 13.57 C
1082 02-07-2020 18:05:00 22.6 C 56 % 13.38 C
1083 02-07-2020 18:10:00 22.4 C 58 % 13.73 C
1084 02-07-2020 18:15:00 22.2 C 59 % 13.81 C
1085 02-07-2020 18:20:00 22 C 61 % 14.14 C
1086 02-07-2020 18:25:00 21.7 C 64 % 14.6 C
1087 02-07-2020 18:30:00 21.3 C 66 % 14.69 C
1088 02-07-2020 18:35:00 20.9 C 67 % 14.55 C
1089 02-07-2020 18:40:00 20.7 C 68 % 14.58 C
1090 02-07-2020 18:45:00 20.3 C 68 % 14.2 C
1091 02-07-2020 18:50:00 20.1 C 70 % 14.46 C
1092 02-07-2020 18:55:00 19.9 C 71 % 14.49 C
1093 02-07-2020 19:00:00 19.7 C 72 % 14.51 C
1094 02-07-2020 19:05:00 19.6 C 73 % 14.63 C
1095 02-07-2020 19:10:00 19.4 C 73 % 14.44 C
1096 02-07-2020 19:15:00 19.3 C 73 % 14.34 C
1097 02-07-2020 19:20:00 19.3 C 74 % 14.55 C
1098 02-07-2020 19:25:00 19.2 C 72 % 14.03 C
1099 02-07-2020 19:30:00 19.1 C 72 % 13.94 C
1100 02-07-2020 19:35:00 19 C 72 % 13.84 C
Sensor: Nr:Datum:Temp:Feuchte:Taupunkt:
Aussen-T/F 1101 02-07-2020 19:40:00 18.9 C 72 % 13.74 C
1102 02-07-2020 19:45:00 18.9 C 73 % 13.96 C
1103 02-07-2020 19:50:00 18.8 C 73 % 13.86 C
1104 02-07-2020 19:55:00 18.8 C 74 % 14.07 C
1105 02-07-2020 20:00:00 18.8 C 74 % 14.07 C
1106 02-07-2020 20:05:00 18.8 C 74 % 14.07 C
1107 02-07-2020 20:10:00 18.8 C 73 % 13.86 C
1108 02-07-2020 20:15:00 18.8 C 73 % 13.86 C
1109 02-07-2020 20:20:00 18.8 C 73 % 13.86 C
1110 02-07-2020 20:25:00 18.9 C 73 % 13.96 C
1111 02-07-2020 20:30:00 18.9 C 72 % 13.74 C
1112 02-07-2020 20:35:00 19.2 C 71 % 13.82 C
1113 02-07-2020 20:40:00 19.4 C 69 % 13.57 C
1114 02-07-2020 20:45:00 19.6 C 68 % 13.54 C
1115 02-07-2020 20:50:00 19.8 C 68 % 13.73 C
1116 02-07-2020 20:55:00 19.8 C 68 % 13.73 C
1117 02-07-2020 21:00:00 19.7 C 68 % 13.63 C
1118 02-07-2020 21:05:00 19.5 C 68 % 13.44 C
1119 02-07-2020 21:10:00 19.3 C 69 % 13.47 C
1120 02-07-2020 21:15:00 19.2 C 71 % 13.82 C
1121 02-07-2020 21:20:00 19.1 C 71 % 13.72 C
1122 02-07-2020 21:25:00 18.9 C 72 % 13.74 C
1123 02-07-2020 21:30:00 18.8 C 73 % 13.86 C
1124 02-07-2020 21:35:00 18.7 C 73 % 13.76 C
1125 02-07-2020 21:40:00 18.5 C 75 % 13.99 C
Sensor: Nr:Datum:Temp:Feuchte:Taupunkt:
Aussen-T/F 1126 02-07-2020 21:45:00 18.3 C 76 % 14 C
1127 02-07-2020 21:50:00 18.2 C 77 % 14.1 C
1128 02-07-2020 21:55:00 18.1 C 77 % 14.01 C
1129 02-07-2020 22:00:00 18 C 78 % 14.11 C
1130 02-07-2020 22:05:00 17.9 C 78 % 14.01 C
1131 02-07-2020 22:10:00 17.8 C 78 % 13.91 C
1132 02-07-2020 22:15:00 17.7 C 78 % 13.82 C
1133 02-07-2020 22:20:00 17.6 C 79 % 13.92 C
1134 02-07-2020 22:25:00 17.5 C 79 % 13.82 C
1135 02-07-2020 22:30:00 17.4 C 79 % 13.72 C
1136 02-07-2020 22:35:00 17.3 C 79 % 13.63 C
1137 02-07-2020 22:40:00 17.2 C 80 % 13.72 C
1138 02-07-2020 22:45:00 17.1 C 80 % 13.62 C
1139 02-07-2020 22:50:00 16.9 C 80 % 13.43 C
1140 02-07-2020 22:55:00 16.8 C 81 % 13.52 C
1141 02-07-2020 23:00:00 16.7 C 81 % 13.43 C
1142 02-07-2020 23:05:00 16.6 C 81 % 13.33 C
1143 02-07-2020 23:10:00 16.4 C 82 % 13.32 C
1144 02-07-2020 23:15:00 16.2 C 82 % 13.13 C
1145 02-07-2020 23:20:00 16.1 C 83 % 13.21 C
1146 02-07-2020 23:25:00 15.9 C 83 % 13.02 C
1147 02-07-2020 23:30:00 15.7 C 84 % 13.01 C
1148 02-07-2020 23:35:00 15.6 C 84 % 12.91 C
1149 02-07-2020 23:40:00 15.5 C 85 % 12.99 C
1150 02-07-2020 23:45:00 15.4 C 85 % 12.89 C
Sensor: Nr:Datum:Temp:Feuchte:Taupunkt:
Aussen-T/F 1151 02-07-2020 23:50:00 15.3 C 85 % 12.79 C
1152 02-07-2020 23:55:00 15.3 C 86 % 12.97 C
1153 03-07-2020 00:00:00 15.2 C 86 % 12.88 C
1154 03-07-2020 00:05:00 15.1 C 86 % 12.78 C
1155 03-07-2020 00:10:00 15.1 C 86 % 12.78 C
1156 03-07-2020 00:15:00 15 C 87 % 12.86 C
1157 03-07-2020 00:20:00 15 C 87 % 12.86 C
1158 03-07-2020 00:25:00 14.9 C 87 % 12.76 C
1159 03-07-2020 00:30:00 14.9 C 87 % 12.76 C
1160 03-07-2020 00:35:00 14.8 C 87 % 12.66 C
1161 03-07-2020 00:40:00 14.8 C 87 % 12.66 C
1162 03-07-2020 00:45:00 14.7 C 88 % 12.73 C
1163 03-07-2020 00:50:00 14.6 C 88 % 12.64 C
1164 03-07-2020 00:55:00 14.5 C 88 % 12.54 C
1165 03-07-2020 01:00:00 14.4 C 88 % 12.44 C
1166 03-07-2020 01:05:00 14.3 C 89 % 12.51 C
1167 03-07-2020 01:10:00 14.3 C 89 % 12.51 C
1168 03-07-2020 01:15:00 14.2 C 89 % 12.41 C
1169 03-07-2020 01:20:00 14.2 C 89 % 12.41 C
1170 03-07-2020 01:25:00 14.1 C 89 % 12.32 C
1171 03-07-2020 01:30:00 14 C 89 % 12.22 C
1172 03-07-2020 01:35:00 13.9 C 89 % 12.12 C
1173 03-07-2020 01:40:00 13.8 C 90 % 12.19 C
1174 03-07-2020 01:45:00 13.8 C 90 % 12.19 C
1175 03-07-2020 01:50:00 13.7 C 90 % 12.09 C
Sensor: Nr:Datum:Temp:Feuchte:Taupunkt:
Aussen-T/F 1176 03-07-2020 01:55:00 13.7 C 90 % 12.09 C
1177 03-07-2020 02:00:00 13.7 C 90 % 12.09 C
1178 03-07-2020 02:05:00 13.6 C 90 % 11.99 C
1179 03-07-2020 02:10:00 13.6 C 90 % 11.99 C
1180 03-07-2020 02:15:00 13.5 C 90 % 11.89 C
1181 03-07-2020 02:20:00 13.4 C 90 % 11.79 C
1182 03-07-2020 02:25:00 13.3 C 90 % 11.7 C
1183 03-07-2020 02:30:00 13.3 C 91 % 11.86 C
1184 03-07-2020 02:35:00 13.2 C 91 % 11.76 C
1185 03-07-2020 02:40:00 13.2 C 91 % 11.76 C
1186 03-07-2020 02:45:00 13.1 C 91 % 11.67 C
1187 03-07-2020 02:50:00 13 C 91 % 11.57 C
1188 03-07-2020 02:55:00 12.9 C 91 % 11.47 C
1189 03-07-2020 03:00:00 12.8 C 91 % 11.37 C
1190 03-07-2020 03:05:00 12.8 C 91 % 11.37 C
1191 03-07-2020 03:10:00 12.7 C 92 % 11.43 C
1192 03-07-2020 03:15:00 12.6 C 92 % 11.34 C
1193 03-07-2020 03:20:00 12.4 C 92 % 11.14 C
1194 03-07-2020 03:25:00 12.3 C 92 % 11.04 C
1195 03-07-2020 03:30:00 12.3 C 92 % 11.04 C
1196 03-07-2020 03:35:00 12.3 C 93 % 11.2 C
1197 03-07-2020 03:40:00 12.3 C 93 % 11.2 C
1198 03-07-2020 03:45:00 12.3 C 93 % 11.2 C
1199 03-07-2020 03:50:00 12.3 C 93 % 11.2 C
1200 03-07-2020 03:55:00 12.3 C 93 % 11.2 C
Sensor: Nr:Datum:Temp:Feuchte:Taupunkt:
Aussen-T/F 1201 03-07-2020 04:00:00 12.2 C 93 % 11.1 C
1202 03-07-2020 04:05:00 12.2 C 93 % 11.1 C
1203 03-07-2020 04:10:00 12.1 C 93 % 11 C
1204 03-07-2020 04:15:00 12.1 C 93 % 11 C
1205 03-07-2020 04:20:00 11.9 C 93 % 10.81 C
1206 03-07-2020 04:25:00 11.8 C 93 % 10.71 C
1207 03-07-2020 04:30:00 11.8 C 93 % 10.71 C
1208 03-07-2020 04:35:00 11.7 C 93 % 10.61 C
1209 03-07-2020 04:40:00 11.6 C 93 % 10.51 C
1210 03-07-2020 04:45:00 11.7 C 94 % 10.77 C
1211 03-07-2020 04:50:00 11.7 C 94 % 10.77 C
1212 03-07-2020 04:55:00 11.7 C 94 % 10.77 C
1213 03-07-2020 05:00:00 11.6 C 94 % 10.67 C
1214 03-07-2020 05:05:00 11.6 C 94 % 10.67 C
1215 03-07-2020 05:10:00 11.6 C 94 % 10.67 C
1216 03-07-2020 05:15:00 11.5 C 94 % 10.57 C
1217 03-07-2020 05:20:00 11.4 C 94 % 10.47 C
1218 03-07-2020 05:25:00 11.4 C 94 % 10.47 C
1219 03-07-2020 05:30:00 11.3 C 94 % 10.37 C
1220 03-07-2020 05:35:00 11.3 C 94 % 10.37 C
1221 03-07-2020 05:40:00 11.3 C 94 % 10.37 C
1222 03-07-2020 05:45:00 11.3 C 94 % 10.37 C
1223 03-07-2020 05:50:00 11.2 C 94 % 10.27 C
1224 03-07-2020 05:55:00 11.2 C 94 % 10.27 C
1225 03-07-2020 06:00:00 11.2 C 94 % 10.27 C
Sensor: Nr:Datum:Temp:Feuchte:Taupunkt:
Aussen-T/F 1226 03-07-2020 06:05:00 11.2 C 94 % 10.27 C
1227 03-07-2020 06:10:00 11.2 C 94 % 10.27 C
1228 03-07-2020 06:15:00 11.2 C 95 % 10.43 C
1229 03-07-2020 06:20:00 11.3 C 95 % 10.53 C
1230 03-07-2020 06:25:00 11.3 C 95 % 10.53 C
1231 03-07-2020 06:30:00 11.4 C 95 % 10.63 C
1232 03-07-2020 06:35:00 11.4 C 95 % 10.63 C
1233 03-07-2020 06:40:00 11.4 C 95 % 10.63 C
1234 03-07-2020 06:45:00 11.5 C 95 % 10.73 C
1235 03-07-2020 06:50:00 11.5 C 95 % 10.73 C
1236 03-07-2020 06:55:00 11.4 C 95 % 10.63 C
1237 03-07-2020 07:00:00 11.4 C 95 % 10.63 C
1238 03-07-2020 07:05:00 11.5 C 95 % 10.73 C
1239 03-07-2020 07:10:00 11.5 C 95 % 10.73 C
1240 03-07-2020 07:15:00 11.5 C 95 % 10.73 C
1241 03-07-2020 07:20:00 11.6 C 95 % 10.83 C
1242 03-07-2020 07:25:00 11.6 C 95 % 10.83 C
1243 03-07-2020 07:30:00 11.7 C 95 % 10.93 C
1244 03-07-2020 07:35:00 11.8 C 95 % 11.03 C
1245 03-07-2020 07:40:00 12 C 96 % 11.38 C
1246 03-07-2020 07:45:00 12.2 C 96 % 11.58 C
1247 03-07-2020 07:50:00 12.3 C 96 % 11.68 C
1248 03-07-2020 07:55:00 12.4 C 95 % 11.62 C
1249 03-07-2020 08:00:00 12.6 C 94 % 11.66 C
1250 03-07-2020 08:05:00 12.7 C 94 % 11.76 C
Sensor: Nr:Datum:Temp:Feuchte:Taupunkt:
Aussen-T/F 1251 03-07-2020 08:10:00 12.9 C 93 % 11.8 C
1252 03-07-2020 08:15:00 13.2 C 92 % 11.93 C
1253 03-07-2020 08:20:00 13.4 C 91 % 11.96 C
1254 03-07-2020 08:25:00 13.6 C 90 % 11.99 C
1255 03-07-2020 08:30:00 13.8 C 88 % 11.85 C
1256 03-07-2020 08:35:00 14.1 C 86 % 11.8 C
1257 03-07-2020 08:40:00 14.3 C 86 % 11.99 C
1258 03-07-2020 08:45:00 14.6 C 84 % 11.93 C
1259 03-07-2020 08:50:00 14.8 C 82 % 11.76 C
1260 03-07-2020 08:55:00 14.9 C 83 % 12.04 C
1261 03-07-2020 09:00:00 15 C 83 % 12.14 C
1262 03-07-2020 09:05:00 15.1 C 81 % 11.87 C
1263 03-07-2020 09:10:00 15.2 C 81 % 11.96 C
1264 03-07-2020 09:15:00 15.3 C 81 % 12.06 C
1265 03-07-2020 09:20:00 15.6 C 80 % 12.16 C
1266 03-07-2020 09:25:00 15.8 C 80 % 12.36 C
1267 03-07-2020 09:30:00 16 C 78 % 12.17 C
1268 03-07-2020 09:35:00 16.2 C 78 % 12.36 C
1269 03-07-2020 09:40:00 16.3 C 77 % 12.26 C
1270 03-07-2020 09:45:00 16.4 C 77 % 12.36 C
1271 03-07-2020 09:50:00 16.6 C 77 % 12.55 C
1272 03-07-2020 09:55:00 16.7 C 76 % 12.45 C
1273 03-07-2020 10:00:00 16.8 C 76 % 12.55 C
1274 03-07-2020 10:05:00 17 C 75 % 12.54 C
1275 03-07-2020 10:10:00 17.2 C 77 % 13.14 C
Sensor: Nr:Datum:Temp:Feuchte:Taupunkt:
Aussen-T/F 1276 03-07-2020 10:15:00 17.4 C 75 % 12.93 C
1277 03-07-2020 10:20:00 17.6 C 75 % 13.12 C
1278 03-07-2020 10:25:00 17.8 C 75 % 13.31 C
1279 03-07-2020 10:30:00 18.3 C 72 % 13.17 C
1280 03-07-2020 10:35:00 18.6 C 72 % 13.46 C
1281 03-07-2020 10:40:00 18.9 C 70 % 13.31 C
1282 03-07-2020 10:45:00 19.1 C 70 % 13.5 C
1283 03-07-2020 10:50:00 19.3 C 69 % 13.47 C
1284 03-07-2020 10:55:00 19.6 C 69 % 13.76 C
1285 03-07-2020 11:00:00 19.8 C 67 % 13.5 C
1286 03-07-2020 11:05:00 19.8 C 67 % 13.5 C
1287 03-07-2020 11:10:00 19.8 C 68 % 13.73 C
1288 03-07-2020 11:15:00 19.9 C 67 % 13.59 C
1289 03-07-2020 11:20:00 19.9 C 67 % 13.59 C
1290 03-07-2020 11:25:00 19.9 C 67 % 13.59 C
1291 03-07-2020 11:30:00 19.9 C 65 % 13.13 C
1292 03-07-2020 11:35:00 19.9 C 66 % 13.36 C
1293 03-07-2020 11:40:00 19.9 C 66 % 13.36 C
1294 03-07-2020 11:45:00 19.9 C 65 % 13.13 C
1295 03-07-2020 11:50:00 19.9 C 64 % 12.89 C
1296 03-07-2020 11:55:00 19.9 C 66 % 13.36 C
1297 03-07-2020 12:00:00 20 C 66 % 13.46 C
1298 03-07-2020 12:05:00 19.9 C 63 % 12.65 C
1299 03-07-2020 12:10:00 19.9 C 68 % 13.82 C
1300 03-07-2020 12:15:00 20 C 65 % 13.22 C
Sensor: Nr:Datum:Temp:Feuchte:Taupunkt:
Aussen-T/F 1301 03-07-2020 12:20:00 20.1 C 67 % 13.78 C
1302 03-07-2020 12:25:00 20.1 C 66 % 13.55 C
1303 03-07-2020 12:30:00 20.2 C 64 % 13.18 C
1304 03-07-2020 12:35:00 20.2 C 63 % 12.94 C
1305 03-07-2020 12:40:00 20.3 C 62 % 12.79 C
1306 03-07-2020 12:45:00 20.3 C 62 % 12.79 C
1307 03-07-2020 12:50:00 20.4 C 62 % 12.88 C
1308 03-07-2020 12:55:00 20.3 C 61 % 12.54 C
1309 03-07-2020 13:00:00 20.4 C 61 % 12.63 C
1310 03-07-2020 13:05:00 20.6 C 63 % 13.31 C
1311 03-07-2020 13:10:00 20.8 C 61 % 13.01 C
1312 03-07-2020 13:15:00 20.9 C 60 % 12.85 C
1313 03-07-2020 13:20:00 20.9 C 60 % 12.85 C
1314 03-07-2020 13:25:00 20.9 C 60 % 12.85 C
1315 03-07-2020 13:30:00 21.1 C 63 % 13.79 C
1316 03-07-2020 13:35:00 21.3 C 61 % 13.48 C
1317 03-07-2020 13:40:00 21.4 C 58 % 12.8 C
1318 03-07-2020 13:45:00 21.4 C 58 % 12.8 C
1319 03-07-2020 13:50:00 21.4 C 59 % 13.06 C
1320 03-07-2020 13:55:00 21.6 C 58 % 12.99 C
1321 03-07-2020 14:00:00 21.7 C 57 % 12.81 C
1322 03-07-2020 14:05:00 21.8 C 56 % 12.64 C
1323 03-07-2020 14:10:00 21.8 C 56 % 12.64 C
1324 03-07-2020 14:15:00 21.9 C 55 % 12.46 C
1325 03-07-2020 14:20:00 22.1 C 55 % 12.64 C
Sensor: Nr:Datum:Temp:Feuchte:Taupunkt:
Aussen-T/F 1326 03-07-2020 14:25:00 22.2 C 58 % 13.55 C
1327 03-07-2020 14:30:00 22.3 C 57 % 13.37 C
1328 03-07-2020 14:35:00 22.3 C 56 % 13.1 C
1329 03-07-2020 14:40:00 22.4 C 58 % 13.73 C
1330 03-07-2020 14:45:00 22.8 C 53 % 12.73 C
1331 03-07-2020 14:50:00 22.9 C 52 % 12.53 C
1332 03-07-2020 14:55:00 22.8 C 52 % 12.43 C
1333 03-07-2020 15:00:00 22.7 C 52 % 12.34 C
1334 03-07-2020 15:05:00 22.7 C 53 % 12.63 C
1335 03-07-2020 15:10:00 22.6 C 53 % 12.54 C
1336 03-07-2020 15:15:00 22.7 C 56 % 13.47 C
1337 03-07-2020 15:20:00 23.1 C 53 % 13 C
1338 03-07-2020 15:25:00 23.4 C 52 % 12.99 C
1339 03-07-2020 15:30:00 23.5 C 54 % 13.66 C
1340 03-07-2020 15:35:00 23.7 C 52 % 13.26 C
1341 03-07-2020 15:40:00 24 C 50 % 12.94 C
1342 03-07-2020 15:45:00 24.6 C 49 % 13.18 C
1343 03-07-2020 15:50:00 24.7 C 47 % 12.64 C
1344 03-07-2020 15:55:00 24.2 C 48 % 12.5 C
1345 03-07-2020 16:00:00 23.8 C 48 % 12.14 C
1346 03-07-2020 16:05:00 23.9 C 49 % 12.54 C
1347 03-07-2020 16:10:00 23.9 C 47 % 11.91 C
1348 03-07-2020 16:15:00 23.7 C 51 % 12.97 C
1349 03-07-2020 16:20:00 24.3 C 47 % 12.27 C
1350 03-07-2020 16:25:00 24.7 C 46 % 12.31 C
Sensor: Nr:Datum:Temp:Feuchte:Taupunkt:
Aussen-T/F 1351 03-07-2020 16:30:00 24.4 C 47 % 12.36 C
1352 03-07-2020 16:35:00 23.9 C 47 % 11.91 C
1353 03-07-2020 16:40:00 23.4 C 49 % 12.08 C
1354 03-07-2020 16:45:00 23.4 C 52 % 12.99 C
1355 03-07-2020 16:50:00 24.1 C 48 % 12.41 C
1356 03-07-2020 16:55:00 24.8 C 45 % 12.06 C
1357 03-07-2020 17:00:00 25.1 C 44 % 12 C
1358 03-07-2020 17:05:00 25.3 C 45 % 12.52 C
1359 03-07-2020 17:10:00 25.3 C 46 % 12.85 C
1360 03-07-2020 17:15:00 25.2 C 44 % 12.09 C
1361 03-07-2020 17:20:00 24.6 C 46 % 12.22 C
1362 03-07-2020 17:25:00 24.3 C 48 % 12.59 C
1363 03-07-2020 17:30:00 24 C 47 % 12 C
1364 03-07-2020 17:35:00 23.5 C 49 % 12.17 C
1365 03-07-2020 17:40:00 23.1 C 49 % 11.81 C
1366 03-07-2020 17:45:00 22.9 C 52 % 12.53 C
1367 03-07-2020 17:50:00 22.9 C 51 % 12.23 C
1368 03-07-2020 17:55:00 22.9 C 53 % 12.82 C
1369 03-07-2020 18:00:00 23.2 C 52 % 12.8 C
1370 03-07-2020 18:05:00 23.9 C 47 % 11.91 C
1371 03-07-2020 18:10:00 24 C 48 % 12.32 C
1372 03-07-2020 18:15:00 23.7 C 49 % 12.36 C
1373 03-07-2020 18:20:00 23.9 C 49 % 12.54 C
1374 03-07-2020 18:25:00 23.9 C 49 % 12.54 C
1375 03-07-2020 18:30:00 24.1 C 47 % 12.09 C
Sensor: Nr:Datum:Temp:Feuchte:Taupunkt:
Aussen-T/F 1376 03-07-2020 18:35:00 24.6 C 46 % 12.22 C
1377 03-07-2020 18:40:00 25 C 45 % 12.25 C
1378 03-07-2020 18:45:00 24.4 C 45 % 11.7 C
1379 03-07-2020 18:50:00 23.8 C 48 % 12.14 C
1380 03-07-2020 18:55:00 23.3 C 48 % 11.68 C
1381 03-07-2020 19:00:00 23.1 C 52 % 12.71 C
1382 03-07-2020 19:05:00 23.2 C 51 % 12.51 C
1383 03-07-2020 19:10:00 23.9 C 47 % 11.91 C
1384 03-07-2020 19:15:00 24.4 C 44 % 11.36 C
1385 03-07-2020 19:20:00 24.4 C 44 % 11.36 C
1386 03-07-2020 19:25:00 24.2 C 45 % 11.52 C
1387 03-07-2020 19:30:00 24.1 C 45 % 11.43 C
1388 03-07-2020 19:35:00 24.1 C 46 % 11.76 C
1389 03-07-2020 19:40:00 24.1 C 45 % 11.43 C
1390 03-07-2020 19:45:00 23.8 C 45 % 11.16 C
1391 03-07-2020 19:50:00 23.7 C 47 % 11.73 C
1392 03-07-2020 19:55:00 23.4 C 47 % 11.45 C
1393 03-07-2020 20:00:00 23.4 C 46 % 11.13 C
1394 03-07-2020 20:05:00 23.2 C 46 % 10.95 C
1395 03-07-2020 20:10:00 22.9 C 48 % 11.31 C
1396 03-07-2020 20:15:00 22.7 C 49 % 11.44 C
1397 03-07-2020 20:20:00 22.5 C 49 % 11.26 C
1398 03-07-2020 20:25:00 22.3 C 50 % 11.38 C
1399 03-07-2020 20:30:00 22.2 C 51 % 11.59 C
1400 03-07-2020 20:35:00 22 C 54 % 12.27 C
Sensor: Nr:Datum:Temp:Feuchte:Taupunkt:
Aussen-T/F 1401 03-07-2020 20:40:00 21.7 C 53 % 11.71 C
1402 03-07-2020 20:45:00 21.4 C 54 % 11.71 C
1403 03-07-2020 20:50:00 21.2 C 54 % 11.53 C
1404 03-07-2020 20:55:00 21 C 57 % 12.16 C
1405 03-07-2020 21:00:00 20.9 C 59 % 12.59 C
1406 03-07-2020 21:05:00 20.7 C 60 % 12.66 C
1407 03-07-2020 21:10:00 20.6 C 61 % 12.82 C
1408 03-07-2020 21:15:00 20.3 C 61 % 12.54 C
1409 03-07-2020 21:20:00 20.1 C 62 % 12.6 C
1410 03-07-2020 21:25:00 19.8 C 64 % 12.8 C
1411 03-07-2020 21:30:00 19.5 C 65 % 12.75 C
1412 03-07-2020 21:35:00 19.2 C 65 % 12.47 C
1413 03-07-2020 21:40:00 18.9 C 66 % 12.41 C
1414 03-07-2020 21:45:00 18.7 C 68 % 12.68 C
1415 03-07-2020 21:50:00 18.4 C 68 % 12.39 C
1416 03-07-2020 21:55:00 18.2 C 69 % 12.42 C
1417 03-07-2020 22:00:00 17.9 C 70 % 12.35 C
1418 03-07-2020 22:05:00 17.8 C 71 % 12.47 C
1419 03-07-2020 22:10:00 17.5 C 72 % 12.4 C
1420 03-07-2020 22:15:00 17.2 C 72 % 12.11 C
1421 03-07-2020 22:20:00 17.1 C 73 % 12.23 C
1422 03-07-2020 22:25:00 16.8 C 74 % 12.14 C
1423 03-07-2020 22:30:00 16.7 C 74 % 12.05 C
1424 03-07-2020 22:35:00 16.6 C 74 % 11.95 C
1425 03-07-2020 22:40:00 16.5 C 75 % 12.06 C
Sensor: Nr:Datum:Temp:Feuchte:Taupunkt:
Aussen-T/F 1426 03-07-2020 22:45:00 16.4 C 75 % 11.96 C
1427 03-07-2020 22:50:00 16.3 C 75 % 11.86 C
1428 03-07-2020 22:55:00 16.2 C 76 % 11.97 C
1429 03-07-2020 23:00:00 16.1 C 76 % 11.87 C
1430 03-07-2020 23:05:00 16 C 77 % 11.97 C
1431 03-07-2020 23:10:00 15.8 C 77 % 11.78 C
1432 03-07-2020 23:15:00 15.7 C 78 % 11.88 C
1433 03-07-2020 23:20:00 15.6 C 78 % 11.78 C
1434 03-07-2020 23:25:00 15.4 C 79 % 11.78 C
1435 03-07-2020 23:30:00 15.3 C 80 % 11.87 C
1436 03-07-2020 23:35:00 15.2 C 80 % 11.78 C
1437 03-07-2020 23:40:00 15.2 C 81 % 11.96 C
1438 03-07-2020 23:45:00 15.1 C 81 % 11.87 C
1439 03-07-2020 23:50:00 14.9 C 81 % 11.67 C
1440 03-07-2020 23:55:00 14.9 C 81 % 11.67 C
1441 04-07-2020 00:00:00 14.8 C 82 % 11.76 C
1442 04-07-2020 00:05:00 14.7 C 82 % 11.66 C
1443 04-07-2020 00:10:00 14.7 C 82 % 11.66 C
1444 04-07-2020 00:15:00 14.6 C 82 % 11.56 C
1445 04-07-2020 00:20:00 14.4 C 83 % 11.55 C
1446 04-07-2020 00:25:00 14.4 C 83 % 11.55 C
1447 04-07-2020 00:30:00 14.3 C 83 % 11.45 C
1448 04-07-2020 00:35:00 14.2 C 83 % 11.36 C
1449 04-07-2020 00:40:00 14.2 C 84 % 11.54 C
1450 04-07-2020 00:45:00 14.1 C 84 % 11.44 C
Sensor: Nr:Datum:Temp:Feuchte:Taupunkt:
Aussen-T/F 1451 04-07-2020 00:50:00 14 C 85 % 11.52 C
1452 04-07-2020 00:55:00 13.9 C 85 % 11.42 C
1453 04-07-2020 01:00:00 13.8 C 85 % 11.32 C
1454 04-07-2020 01:05:00 13.8 C 85 % 11.32 C
1455 04-07-2020 01:10:00 13.7 C 86 % 11.4 C
1456 04-07-2020 01:15:00 13.6 C 86 % 11.3 C
1457 04-07-2020 01:20:00 13.6 C 86 % 11.3 C
1458 04-07-2020 01:25:00 13.6 C 86 % 11.3 C
1459 04-07-2020 01:30:00 13.5 C 86 % 11.21 C
1460 04-07-2020 01:35:00 13.5 C 86 % 11.21 C
1461 04-07-2020 01:40:00 13.5 C 86 % 11.21 C
1462 04-07-2020 01:45:00 13.4 C 86 % 11.11 C
1463 04-07-2020 01:50:00 13.4 C 86 % 11.11 C
1464 04-07-2020 01:55:00 13.3 C 86 % 11.01 C
1465 04-07-2020 02:00:00 13.3 C 86 % 11.01 C
1466 04-07-2020 02:05:00 13.2 C 86 % 10.91 C
1467 04-07-2020 02:10:00 13.2 C 87 % 11.09 C
1468 04-07-2020 02:15:00 13.2 C 87 % 11.09 C
1469 04-07-2020 02:20:00 13.2 C 87 % 11.09 C
1470 04-07-2020 02:25:00 13.2 C 87 % 11.09 C
1471 04-07-2020 02:30:00 13.1 C 87 % 10.99 C
1472 04-07-2020 02:35:00 13.2 C 87 % 11.09 C
1473 04-07-2020 02:40:00 13.4 C 87 % 11.28 C
1474 04-07-2020 02:45:00 13.4 C 86 % 11.11 C
1475 04-07-2020 02:50:00 13.3 C 86 % 11.01 C
Sensor: Nr:Datum:Temp:Feuchte:Taupunkt:
Aussen-T/F 1476 04-07-2020 02:55:00 13.2 C 86 % 10.91 C
1477 04-07-2020 03:00:00 13.2 C 86 % 10.91 C
1478 04-07-2020 03:05:00 13.1 C 87 % 10.99 C
1479 04-07-2020 03:10:00 13 C 87 % 10.89 C
1480 04-07-2020 03:15:00 12.9 C 87 % 10.79 C
1481 04-07-2020 03:20:00 12.9 C 87 % 10.79 C
1482 04-07-2020 03:25:00 12.9 C 87 % 10.79 C
1483 04-07-2020 03:30:00 12.8 C 88 % 10.86 C
1484 04-07-2020 03:35:00 12.8 C 88 % 10.86 C
1485 04-07-2020 03:40:00 12.7 C 88 % 10.77 C
1486 04-07-2020 03:45:00 12.6 C 88 % 10.67 C
1487 04-07-2020 03:50:00 12.6 C 89 % 10.84 C
1488 04-07-2020 03:55:00 12.6 C 89 % 10.84 C
1489 04-07-2020 04:00:00 12.5 C 89 % 10.74 C
1490 04-07-2020 04:05:00 12.4 C 89 % 10.64 C
1491 04-07-2020 04:10:00 12.4 C 89 % 10.64 C
1492 04-07-2020 04:15:00 12.4 C 89 % 10.64 C
1493 04-07-2020 04:20:00 12.4 C 89 % 10.64 C
1494 04-07-2020 04:25:00 12.4 C 89 % 10.64 C
1495 04-07-2020 04:30:00 12.5 C 89 % 10.74 C
1496 04-07-2020 04:35:00 12.5 C 89 % 10.74 C
1497 04-07-2020 04:40:00 12.7 C 88 % 10.77 C
1498 04-07-2020 04:45:00 12.7 C 88 % 10.77 C
1499 04-07-2020 04:50:00 12.7 C 88 % 10.77 C
1500 04-07-2020 04:55:00 12.8 C 88 % 10.86 C
Sensor: Nr:Datum:Temp:Feuchte:Taupunkt:
Aussen-T/F 1501 04-07-2020 05:00:00 13 C 87 % 10.89 C
1502 04-07-2020 05:05:00 13.1 C 86 % 10.81 C
1503 04-07-2020 05:10:00 13 C 86 % 10.72 C
1504 04-07-2020 05:15:00 12.8 C 86 % 10.52 C
1505 04-07-2020 05:20:00 12.7 C 87 % 10.59 C
1506 04-07-2020 05:25:00 12.6 C 87 % 10.5 C
1507 04-07-2020 05:30:00 12.6 C 88 % 10.67 C
1508 04-07-2020 05:35:00 12.5 C 88 % 10.57 C
1509 04-07-2020 05:40:00 12.4 C 88 % 10.47 C
1510 04-07-2020 05:45:00 12.4 C 89 % 10.64 C
1511 04-07-2020 05:50:00 12.4 C 89 % 10.64 C
1512 04-07-2020 05:55:00 12.4 C 89 % 10.64 C
1513 04-07-2020 06:00:00 12.4 C 89 % 10.64 C
1514 04-07-2020 06:05:00 12.5 C 90 % 10.91 C
1515 04-07-2020 06:10:00 12.5 C 90 % 10.91 C
1516 04-07-2020 06:15:00 12.5 C 90 % 10.91 C
1517 04-07-2020 06:20:00 12.6 C 90 % 11 C
1518 04-07-2020 06:25:00 12.6 C 90 % 11 C
1519 04-07-2020 06:30:00 12.7 C 90 % 11.1 C
1520 04-07-2020 06:35:00 12.8 C 90 % 11.2 C
1521 04-07-2020 06:40:00 13.1 C 89 % 11.33 C
1522 04-07-2020 06:45:00 13.2 C 88 % 11.26 C
1523 04-07-2020 06:50:00 13.3 C 88 % 11.36 C
1524 04-07-2020 06:55:00 13.5 C 87 % 11.38 C
1525 04-07-2020 07:00:00 13.6 C 87 % 11.48 C
Sensor: Nr:Datum:Temp:Feuchte:Taupunkt:
Aussen-T/F 1526 04-07-2020 07:05:00 13.7 C 87 % 11.58 C
1527 04-07-2020 07:10:00 13.8 C 86 % 11.5 C
1528 04-07-2020 07:15:00 13.8 C 86 % 11.5 C
1529 04-07-2020 07:20:00 13.9 C 86 % 11.6 C
1530 04-07-2020 07:25:00 14.1 C 86 % 11.8 C
1531 04-07-2020 07:30:00 14.2 C 86 % 11.89 C
1532 04-07-2020 07:35:00 14.3 C 85 % 11.81 C
1533 04-07-2020 07:40:00 14.3 C 85 % 11.81 C
1534 04-07-2020 07:45:00 14.4 C 85 % 11.91 C
1535 04-07-2020 07:50:00 14.6 C 84 % 11.93 C
1536 04-07-2020 07:55:00 14.7 C 84 % 12.03 C
1537 04-07-2020 08:00:00 14.8 C 83 % 11.94 C
1538 04-07-2020 08:05:00 14.9 C 83 % 12.04 C
1539 04-07-2020 08:10:00 15 C 83 % 12.14 C
1540 04-07-2020 08:15:00 15.1 C 82 % 12.05 C
1541 04-07-2020 08:20:00 15.2 C 82 % 12.15 C
1542 04-07-2020 08:25:00 15.3 C 82 % 12.25 C
1543 04-07-2020 08:30:00 15.5 C 81 % 12.26 C
1544 04-07-2020 08:35:00 15.6 C 82 % 12.54 C
1545 04-07-2020 08:40:00 15.7 C 82 % 12.64 C
1546 04-07-2020 08:45:00 15.8 C 82 % 12.74 C
1547 04-07-2020 08:50:00 15.8 C 83 % 12.92 C
1548 04-07-2020 08:55:00 15.8 C 83 % 12.92 C
1549 04-07-2020 09:00:00 15.8 C 83 % 12.92 C
1550 04-07-2020 09:05:00 15.7 C 83 % 12.82 C
Sensor: Nr:Datum:Temp:Feuchte:Taupunkt:
Aussen-T/F 1551 04-07-2020 09:10:00 15.9 C 81 % 12.65 C
1552 04-07-2020 09:15:00 16.1 C 82 % 13.03 C
1553 04-07-2020 09:20:00 16.3 C 81 % 13.04 C
1554 04-07-2020 09:25:00 16.8 C 75 % 12.35 C
1555 04-07-2020 09:30:00 17.4 C 73 % 12.51 C
1556 04-07-2020 09:35:00 17.8 C 70 % 12.26 C
1557 04-07-2020 09:40:00 18.1 C 69 % 12.33 C
1558 04-07-2020 09:45:00 18.3 C 68 % 12.3 C
1559 04-07-2020 09:50:00 18.6 C 67 % 12.36 C
1560 04-07-2020 09:55:00 18.9 C 67 % 12.64 C
1561 04-07-2020 10:00:00 19.2 C 65 % 12.47 C
1562 04-07-2020 10:05:00 19.4 C 64 % 12.42 C
1563 04-07-2020 10:10:00 19.6 C 64 % 12.61 C
1564 04-07-2020 10:15:00 19.8 C 64 % 12.8 C
1565 04-07-2020 10:20:00 20.1 C 63 % 12.84 C
1566 04-07-2020 10:25:00 20.4 C 62 % 12.88 C
1567 04-07-2020 10:30:00 20.6 C 62 % 13.07 C
1568 04-07-2020 10:35:00 20.6 C 61 % 12.82 C
1569 04-07-2020 10:40:00 20.6 C 62 % 13.07 C
1570 04-07-2020 10:45:00 20.5 C 60 % 12.47 C
1571 04-07-2020 10:50:00 20.6 C 63 % 13.31 C
1572 04-07-2020 10:55:00 20.9 C 61 % 13.1 C
1573 04-07-2020 11:00:00 21.1 C 58 % 12.52 C
1574 04-07-2020 11:05:00 21.1 C 58 % 12.52 C
1575 04-07-2020 11:10:00 21.3 C 59 % 12.97 C
Sensor: Nr:Datum:Temp:Feuchte:Taupunkt:
Aussen-T/F 1576 04-07-2020 11:15:00 21.7 C 58 % 13.08 C
1577 04-07-2020 11:20:00 21.8 C 57 % 12.91 C
1578 04-07-2020 11:25:00 21.9 C 56 % 12.73 C
1579 04-07-2020 11:30:00 22 C 56 % 12.82 C
1580 04-07-2020 11:35:00 21.9 C 55 % 12.46 C
1581 04-07-2020 11:40:00 21.8 C 56 % 12.64 C
1582 04-07-2020 11:45:00 21.8 C 56 % 12.64 C
1583 04-07-2020 11:50:00 21.9 C 56 % 12.73 C
1584 04-07-2020 11:55:00 22.2 C 55 % 12.73 C
1585 04-07-2020 12:00:00 22.1 C 55 % 12.64 C
1586 04-07-2020 12:05:00 22.1 C 55 % 12.64 C
1587 04-07-2020 12:10:00 22.2 C 57 % 13.28 C
1588 04-07-2020 12:15:00 22.3 C 56 % 13.1 C
1589 04-07-2020 12:20:00 22.2 C 55 % 12.73 C
1590 04-07-2020 12:25:00 22.2 C 57 % 13.28 C
1591 04-07-2020 12:30:00 22.3 C 55 % 12.83 C
1592 04-07-2020 12:35:00 22.3 C 56 % 13.1 C
1593 04-07-2020 12:40:00 22.3 C 57 % 13.37 C
1594 04-07-2020 12:45:00 22.3 C 55 % 12.83 C
1595 04-07-2020 12:50:00 22.2 C 55 % 12.73 C
1596 04-07-2020 12:55:00 22.1 C 56 % 12.92 C
1597 04-07-2020 13:00:00 22.2 C 57 % 13.28 C
1598 04-07-2020 13:05:00 22.3 C 56 % 13.1 C
1599 04-07-2020 13:10:00 22.3 C 55 % 12.83 C
1600 04-07-2020 13:15:00 22.2 C 56 % 13.01 C
Sensor: Nr:Datum:Temp:Feuchte:Taupunkt:
Aussen-T/F 1601 04-07-2020 13:20:00 22.2 C 56 % 13.01 C
1602 04-07-2020 13:25:00 22.1 C 55 % 12.64 C
1603 04-07-2020 13:30:00 22.2 C 55 % 12.73 C
1604 04-07-2020 13:35:00 22.3 C 56 % 13.1 C
1605 04-07-2020 13:40:00 22.4 C 55 % 12.92 C
1606 04-07-2020 13:45:00 22.6 C 55 % 13.11 C
1607 04-07-2020 13:50:00 22.9 C 56 % 13.66 C
1608 04-07-2020 13:55:00 23 C 54 % 13.2 C
1609 04-07-2020 14:00:00 23.1 C 55 % 13.57 C
1610 04-07-2020 14:05:00 23.1 C 54 % 13.29 C
1611 04-07-2020 14:10:00 23.1 C 54 % 13.29 C
1612 04-07-2020 14:15:00 23.1 C 53 % 13 C
1613 04-07-2020 14:20:00 23.1 C 54 % 13.29 C
1614 04-07-2020 14:25:00 23.1 C 53 % 13 C
1615 04-07-2020 14:30:00 23.1 C 53 % 13 C
1616 04-07-2020 14:35:00 23.1 C 51 % 12.42 C
1617 04-07-2020 14:40:00 23.1 C 52 % 12.71 C
1618 04-07-2020 14:45:00 23.1 C 51 % 12.42 C
1619 04-07-2020 14:50:00 23.1 C 51 % 12.42 C
1620 04-07-2020 14:55:00 23.1 C 51 % 12.42 C
1621 04-07-2020 15:00:00 23.1 C 50 % 12.11 C
1622 04-07-2020 15:05:00 23.1 C 50 % 12.11 C
1623 04-07-2020 15:10:00 23.3 C 51 % 12.6 C
1624 04-07-2020 15:15:00 23.4 C 50 % 12.39 C
1625 04-07-2020 15:20:00 23.5 C 51 % 12.78 C
Sensor: Nr:Datum:Temp:Feuchte:Taupunkt:
Aussen-T/F 1626 04-07-2020 15:25:00 23.6 C 50 % 12.57 C
1627 04-07-2020 15:30:00 23.5 C 50 % 12.48 C
1628 04-07-2020 15:35:00 23.3 C 49 % 11.99 C
1629 04-07-2020 15:40:00 23.3 C 50 % 12.3 C
1630 04-07-2020 15:45:00 23.3 C 51 % 12.6 C
1631 04-07-2020 15:50:00 23.2 C 50 % 12.21 C
1632 04-07-2020 15:55:00 23.2 C 51 % 12.51 C
1633 04-07-2020 16:00:00 23.2 C 52 % 12.8 C
1634 04-07-2020 16:05:00 23.3 C 52 % 12.9 C
1635 04-07-2020 16:10:00 23.2 C 52 % 12.8 C
1636 04-07-2020 16:15:00 23.2 C 52 % 12.8 C
1637 04-07-2020 16:20:00 23.4 C 52 % 12.99 C
1638 04-07-2020 16:25:00 23.7 C 53 % 13.56 C
1639 04-07-2020 16:30:00 24 C 51 % 13.24 C
1640 04-07-2020 16:35:00 24.3 C 53 % 14.11 C
1641 04-07-2020 16:40:00 24.8 C 50 % 13.67 C
1642 04-07-2020 16:45:00 25.3 C 50 % 14.13 C
1643 04-07-2020 16:50:00 25.4 C 48 % 13.6 C
1644 04-07-2020 16:55:00 25.1 C 49 % 13.64 C
1645 04-07-2020 17:00:00 25.1 C 49 % 13.64 C
1646 04-07-2020 17:05:00 24.9 C 48 % 13.14 C
1647 04-07-2020 17:10:00 24.8 C 51 % 13.98 C
1648 04-07-2020 17:15:00 24.7 C 50 % 13.58 C
1649 04-07-2020 17:20:00 24.6 C 50 % 13.49 C
1650 04-07-2020 17:25:00 24.7 C 51 % 13.89 C
Sensor: Nr:Datum:Temp:Feuchte:Taupunkt:
Aussen-T/F 1651 04-07-2020 17:30:00 24.8 C 50 % 13.67 C
1652 04-07-2020 17:35:00 24.9 C 52 % 14.37 C
1653 04-07-2020 17:40:00 24.9 C 50 % 13.77 C
1654 04-07-2020 17:45:00 25 C 50 % 13.86 C
1655 04-07-2020 17:50:00 25.2 C 49 % 13.73 C
1656 04-07-2020 17:55:00 25.3 C 51 % 14.44 C
1657 04-07-2020 18:00:00 25.2 C 50 % 14.04 C
1658 04-07-2020 18:05:00 25 C 50 % 13.86 C
1659 04-07-2020 18:10:00 24.8 C 52 % 14.28 C
1660 04-07-2020 18:15:00 24.8 C 53 % 14.57 C
1661 04-07-2020 18:20:00 24.7 C 51 % 13.89 C
1662 04-07-2020 18:25:00 24.7 C 52 % 14.19 C
1663 04-07-2020 18:30:00 24.4 C 52 % 13.91 C
1664 04-07-2020 18:35:00 24.2 C 52 % 13.73 C
1665 04-07-2020 18:40:00 24.1 C 54 % 14.21 C
1666 04-07-2020 18:45:00 24.4 C 55 % 14.78 C
1667 04-07-2020 18:50:00 24.5 C 53 % 14.3 C
1668 04-07-2020 18:55:00 24.6 C 54 % 14.68 C
1669 04-07-2020 19:00:00 24.7 C 54 % 14.77 C
1670 04-07-2020 19:05:00 24.7 C 53 % 14.48 C
1671 04-07-2020 19:10:00 24.7 C 53 % 14.48 C
1672 04-07-2020 19:15:00 24.7 C 54 % 14.77 C
1673 04-07-2020 19:20:00 24.6 C 54 % 14.68 C
1674 04-07-2020 19:25:00 24.4 C 55 % 14.78 C
1675 04-07-2020 19:30:00 24.4 C 57 % 15.33 C
Sensor: Nr:Datum:Temp:Feuchte:Taupunkt:
Aussen-T/F 1676 04-07-2020 19:35:00 24.8 C 55 % 15.15 C
1677 04-07-2020 19:40:00 25.3 C 53 % 15.03 C
1678 04-07-2020 19:45:00 25.3 C 51 % 14.44 C
1679 04-07-2020 19:50:00 25 C 52 % 14.46 C
1680 04-07-2020 19:55:00 24.8 C 53 % 14.57 C
1681 04-07-2020 20:00:00 24.4 C 53 % 14.2 C
1682 04-07-2020 20:05:00 23.9 C 54 % 14.03 C
1683 04-07-2020 20:10:00 23.4 C 55 % 13.85 C
1684 04-07-2020 20:15:00 23.2 C 57 % 14.21 C
1685 04-07-2020 20:20:00 23.1 C 57 % 14.12 C
1686 04-07-2020 20:25:00 22.9 C 57 % 13.93 C
1687 04-07-2020 20:30:00 22.8 C 58 % 14.11 C
1688 04-07-2020 20:35:00 22.7 C 58 % 14.01 C
1689 04-07-2020 20:40:00 22.6 C 58 % 13.92 C
1690 04-07-2020 20:45:00 22.5 C 60 % 14.35 C
1691 04-07-2020 20:50:00 22.5 C 59 % 14.09 C
1692 04-07-2020 20:55:00 22.4 C 60 % 14.26 C
1693 04-07-2020 21:00:00 22.4 C 60 % 14.26 C
1694 04-07-2020 21:05:00 22.4 C 60 % 14.26 C
1695 04-07-2020 21:10:00 22.4 C 61 % 14.51 C
1696 04-07-2020 21:15:00 22.3 C 61 % 14.42 C
1697 04-07-2020 21:20:00 22.3 C 61 % 14.42 C
1698 04-07-2020 21:25:00 22.3 C 61 % 14.42 C
1699 04-07-2020 21:30:00 22.2 C 61 % 14.32 C
1700 04-07-2020 21:35:00 22.2 C 62 % 14.58 C
Sensor: Nr:Datum:Temp:Feuchte:Taupunkt:
Aussen-T/F 1701 04-07-2020 21:40:00 22.2 C 62 % 14.58 C
1702 04-07-2020 21:45:00 22.2 C 62 % 14.58 C
1703 04-07-2020 21:50:00 22.1 C 63 % 14.73 C
1704 04-07-2020 21:55:00 22.1 C 63 % 14.73 C
1705 04-07-2020 22:00:00 22 C 63 % 14.63 C
1706 04-07-2020 22:05:00 22 C 63 % 14.63 C
1707 04-07-2020 22:10:00 21.9 C 64 % 14.78 C
1708 04-07-2020 22:15:00 21.8 C 63 % 14.45 C
1709 04-07-2020 22:20:00 21.8 C 64 % 14.69 C
1710 04-07-2020 22:25:00 21.7 C 65 % 14.84 C
1711 04-07-2020 22:30:00 21.7 C 65 % 14.84 C
1712 04-07-2020 22:35:00 21.6 C 65 % 14.74 C
1713 04-07-2020 22:40:00 21.6 C 65 % 14.74 C
1714 04-07-2020 22:45:00 21.5 C 66 % 14.88 C
1715 04-07-2020 22:50:00 21.5 C 66 % 14.88 C
1716 04-07-2020 22:55:00 21.5 C 66 % 14.88 C
1717 04-07-2020 23:00:00 21.4 C 68 % 15.25 C
1718 04-07-2020 23:05:00 21.4 C 67 % 15.02 C
1719 04-07-2020 23:10:00 21.3 C 67 % 14.93 C
1720 04-07-2020 23:15:00 21.3 C 67 % 14.93 C
1721 04-07-2020 23:20:00 21.3 C 67 % 14.93 C
1722 04-07-2020 23:25:00 21.4 C 67 % 15.02 C
1723 04-07-2020 23:30:00 21.4 C 67 % 15.02 C
1724 04-07-2020 23:35:00 21.5 C 68 % 15.35 C
1725 04-07-2020 23:40:00 21.5 C 69 % 15.57 C
Sensor: Nr:Datum:Temp:Feuchte:Taupunkt:
Aussen-T/F 1726 04-07-2020 23:45:00 21.5 C 69 % 15.57 C
1727 04-07-2020 23:50:00 21.5 C 70 % 15.8 C
1728 04-07-2020 23:55:00 21.4 C 71 % 15.93 C
1729 05-07-2020 00:00:00 21.4 C 71 % 15.93 C
1730 05-07-2020 00:05:00 21.4 C 71 % 15.93 C
1731 05-07-2020 00:10:00 21.4 C 72 % 16.14 C
1732 05-07-2020 00:15:00 21.4 C 72 % 16.14 C
1733 05-07-2020 00:20:00 21.3 C 72 % 16.05 C
1734 05-07-2020 00:25:00 21.4 C 72 % 16.14 C
1735 05-07-2020 00:30:00 21.3 C 72 % 16.05 C
1736 05-07-2020 00:35:00 21.3 C 72 % 16.05 C
1737 05-07-2020 00:40:00 21.3 C 73 % 16.26 C
1738 05-07-2020 00:45:00 21.2 C 73 % 16.17 C
1739 05-07-2020 00:50:00 21.2 C 74 % 16.38 C
1740 05-07-2020 00:55:00 21.2 C 74 % 16.38 C
1741 05-07-2020 01:00:00 21.2 C 74 % 16.38 C
1742 05-07-2020 01:05:00 21.1 C 75 % 16.5 C
1743 05-07-2020 01:10:00 21 C 75 % 16.4 C
1744 05-07-2020 01:15:00 21 C 74 % 16.19 C
1745 05-07-2020 01:20:00 21 C 75 % 16.4 C
1746 05-07-2020 01:25:00 21.1 C 75 % 16.5 C
1747 05-07-2020 01:30:00 21.1 C 74 % 16.29 C
1748 05-07-2020 01:35:00 21.1 C 74 % 16.29 C
1749 05-07-2020 01:40:00 21.2 C 74 % 16.38 C
1750 05-07-2020 01:45:00 21.2 C 75 % 16.59 C
Sensor: Nr:Datum:Temp:Feuchte:Taupunkt:
Aussen-T/F 1751 05-07-2020 01:50:00 21.2 C 75 % 16.59 C
1752 05-07-2020 01:55:00 21.2 C 75 % 16.59 C
1753 05-07-2020 02:00:00 21.2 C 75 % 16.59 C
1754 05-07-2020 02:05:00 21.2 C 75 % 16.59 C
1755 05-07-2020 02:10:00 21.1 C 75 % 16.5 C
1756 05-07-2020 02:15:00 21.1 C 76 % 16.7 C
1757 05-07-2020 02:20:00 21 C 76 % 16.61 C
1758 05-07-2020 02:25:00 20.9 C 76 % 16.51 C
1759 05-07-2020 02:30:00 20.9 C 76 % 16.51 C
1760 05-07-2020 02:35:00 20.9 C 76 % 16.51 C
1761 05-07-2020 02:40:00 20.9 C 76 % 16.51 C
1762 05-07-2020 02:45:00 20.9 C 76 % 16.51 C
1763 05-07-2020 02:50:00 20.9 C 76 % 16.51 C
1764 05-07-2020 02:55:00 20.9 C 76 % 16.51 C
1765 05-07-2020 03:00:00 21 C 75 % 16.4 C
1766 05-07-2020 03:05:00 21 C 75 % 16.4 C
1767 05-07-2020 03:10:00 21 C 75 % 16.4 C
1768 05-07-2020 03:15:00 21 C 75 % 16.4 C
1769 05-07-2020 03:20:00 20.9 C 75 % 16.3 C
1770 05-07-2020 03:25:00 20.9 C 75 % 16.3 C
1771 05-07-2020 03:30:00 20.9 C 75 % 16.3 C
1772 05-07-2020 03:35:00 20.9 C 75 % 16.3 C
1773 05-07-2020 03:40:00 20.9 C 75 % 16.3 C
1774 05-07-2020 03:45:00 21 C 75 % 16.4 C
1775 05-07-2020 03:50:00 21.1 C 75 % 16.5 C
Sensor: Nr:Datum:Temp:Feuchte:Taupunkt:
Aussen-T/F 1776 05-07-2020 03:55:00 21.1 C 75 % 16.5 C
1777 05-07-2020 04:00:00 21 C 75 % 16.4 C
1778 05-07-2020 04:05:00 21 C 75 % 16.4 C
1779 05-07-2020 04:10:00 21.1 C 75 % 16.5 C
1780 05-07-2020 04:15:00 21.1 C 75 % 16.5 C
1781 05-07-2020 04:20:00 21.1 C 75 % 16.5 C
1782 05-07-2020 04:25:00 21.1 C 75 % 16.5 C
1783 05-07-2020 04:30:00 21.1 C 75 % 16.5 C
1784 05-07-2020 04:35:00 21 C 76 % 16.61 C
1785 05-07-2020 04:40:00 21 C 76 % 16.61 C
1786 05-07-2020 04:45:00 21 C 76 % 16.61 C
1787 05-07-2020 04:50:00 21.1 C 76 % 16.7 C
1788 05-07-2020 04:55:00 21.1 C 76 % 16.7 C
1789 05-07-2020 05:00:00 21.1 C 75 % 16.5 C
1790 05-07-2020 05:05:00 21.1 C 76 % 16.7 C
1791 05-07-2020 05:10:00 21.1 C 76 % 16.7 C
1792 05-07-2020 05:15:00 21.1 C 76 % 16.7 C
1793 05-07-2020 05:20:00 21.1 C 76 % 16.7 C
1794 05-07-2020 05:25:00 21.1 C 76 % 16.7 C
1795 05-07-2020 05:30:00 21.1 C 76 % 16.7 C
1796 05-07-2020 05:35:00 21.1 C 75 % 16.5 C
1797 05-07-2020 05:40:00 21.1 C 76 % 16.7 C
1798 05-07-2020 05:45:00 21.1 C 76 % 16.7 C
1799 05-07-2020 05:50:00 21.1 C 76 % 16.7 C
1800 05-07-2020 05:55:00 21.1 C 76 % 16.7 C
Sensor: Nr:Datum:Temp:Feuchte:Taupunkt:
Aussen-T/F 1801 05-07-2020 06:00:00 21 C 76 % 16.61 C
1802 05-07-2020 06:05:00 21 C 76 % 16.61 C
1803 05-07-2020 06:10:00 21 C 76 % 16.61 C
1804 05-07-2020 06:15:00 20.9 C 76 % 16.51 C
1805 05-07-2020 06:20:00 20.9 C 76 % 16.51 C
1806 05-07-2020 06:25:00 20.9 C 76 % 16.51 C
1807 05-07-2020 06:30:00 20.9 C 76 % 16.51 C
1808 05-07-2020 06:35:00 20.9 C 77 % 16.72 C
1809 05-07-2020 06:40:00 20.9 C 77 % 16.72 C
1810 05-07-2020 06:45:00 20.9 C 77 % 16.72 C
1811 05-07-2020 06:50:00 20.9 C 77 % 16.72 C
1812 05-07-2020 06:55:00 21 C 77 % 16.81 C
1813 05-07-2020 07:00:00 21 C 77 % 16.81 C
1814 05-07-2020 07:05:00 21 C 77 % 16.81 C
1815 05-07-2020 07:10:00 20.9 C 77 % 16.72 C
1816 05-07-2020 07:15:00 20.9 C 77 % 16.72 C
1817 05-07-2020 07:20:00 20.8 C 78 % 16.82 C
1818 05-07-2020 07:25:00 20.9 C 78 % 16.92 C
1819 05-07-2020 07:30:00 21.1 C 77 % 16.91 C
1820 05-07-2020 07:35:00 21.2 C 77 % 17.01 C
1821 05-07-2020 07:40:00 21.2 C 78 % 17.21 C
1822 05-07-2020 07:45:00 21.2 C 77 % 17.01 C
1823 05-07-2020 07:50:00 21.2 C 78 % 17.21 C
1824 05-07-2020 07:55:00 21.2 C 78 % 17.21 C
1825 05-07-2020 08:00:00 21.2 C 78 % 17.21 C
Sensor: Nr:Datum:Temp:Feuchte:Taupunkt:
Aussen-T/F 1826 05-07-2020 08:05:00 21.3 C 78 % 17.31 C
1827 05-07-2020 08:10:00 21.3 C 78 % 17.31 C
1828 05-07-2020 08:15:00 21.4 C 78 % 17.4 C
1829 05-07-2020 08:20:00 21.4 C 77 % 17.2 C
1830 05-07-2020 08:25:00 21.4 C 77 % 17.2 C
1831 05-07-2020 08:30:00 21.4 C 77 % 17.2 C
1832 05-07-2020 08:35:00 21.4 C 78 % 17.4 C
1833 05-07-2020 08:40:00 21.4 C 78 % 17.4 C
1834 05-07-2020 08:45:00 21.4 C 78 % 17.4 C
1835 05-07-2020 08:50:00 21.5 C 78 % 17.5 C
1836 05-07-2020 08:55:00 21.6 C 78 % 17.6 C
1837 05-07-2020 09:00:00 21.6 C 78 % 17.6 C
1838 05-07-2020 09:05:00 21.7 C 77 % 17.49 C
1839 05-07-2020 09:10:00 21.7 C 78 % 17.7 C
1840 05-07-2020 09:15:00 21.8 C 77 % 17.59 C
1841 05-07-2020 09:20:00 21.9 C 76 % 17.48 C
1842 05-07-2020 09:25:00 21.9 C 76 % 17.48 C
1843 05-07-2020 09:30:00 22.1 C 77 % 17.88 C
1844 05-07-2020 09:35:00 22.2 C 76 % 17.77 C
1845 05-07-2020 09:40:00 22.2 C 76 % 17.77 C
1846 05-07-2020 09:45:00 22.3 C 76 % 17.86 C
1847 05-07-2020 09:50:00 22.3 C 75 % 17.65 C
1848 05-07-2020 09:55:00 22.3 C 75 % 17.65 C
1849 05-07-2020 10:00:00 22.2 C 76 % 17.77 C
1850 05-07-2020 10:05:00 22.2 C 75 % 17.56 C
Sensor: Nr:Datum:Temp:Feuchte:Taupunkt:
Aussen-T/F 1851 05-07-2020 10:10:00 22.3 C 75 % 17.65 C
1852 05-07-2020 10:15:00 22.2 C 74 % 17.34 C
1853 05-07-2020 10:20:00 22.3 C 75 % 17.65 C
1854 05-07-2020 10:25:00 22.3 C 75 % 17.65 C
1855 05-07-2020 10:30:00 22.3 C 74 % 17.44 C
1856 05-07-2020 10:35:00 22.4 C 74 % 17.54 C
1857 05-07-2020 10:40:00 22.4 C 73 % 17.32 C
1858 05-07-2020 10:45:00 22.4 C 74 % 17.54 C
1859 05-07-2020 10:50:00 22.6 C 74 % 17.73 C
1860 05-07-2020 10:55:00 22.7 C 73 % 17.61 C
1861 05-07-2020 11:00:00 22.7 C 72 % 17.39 C
1862 05-07-2020 11:05:00 22.7 C 73 % 17.61 C
1863 05-07-2020 11:10:00 22.8 C 72 % 17.49 C
1864 05-07-2020 11:15:00 22.9 C 72 % 17.58 C
1865 05-07-2020 11:20:00 22.8 C 71 % 17.27 C
1866 05-07-2020 11:25:00 22.9 C 73 % 17.8 C
1867 05-07-2020 11:30:00 23 C 71 % 17.46 C
1868 05-07-2020 11:35:00 23.1 C 71 % 17.55 C
1869 05-07-2020 11:40:00 23.3 C 71 % 17.75 C
1870 05-07-2020 11:45:00 23.6 C 71 % 18.03 C
1871 05-07-2020 11:50:00 23.4 C 70 % 17.62 C
1872 05-07-2020 11:55:00 23.3 C 71 % 17.75 C
1873 05-07-2020 12:00:00 23.3 C 71 % 17.75 C
1874 05-07-2020 12:05:00 23.4 C 71 % 17.84 C
1875 05-07-2020 12:10:00 23.4 C 71 % 17.84 C
Sensor: Nr:Datum:Temp:Feuchte:Taupunkt:
Aussen-T/F 1876 05-07-2020 12:15:00 23.3 C 71 % 17.75 C
1877 05-07-2020 12:20:00 23.4 C 71 % 17.84 C
1878 05-07-2020 12:25:00 23.5 C 70 % 17.71 C
1879 05-07-2020 12:30:00 23.5 C 71 % 17.94 C
1880 05-07-2020 12:35:00 23.6 C 70 % 17.81 C
1881 05-07-2020 12:40:00 23.6 C 70 % 17.81 C
1882 05-07-2020 12:45:00 23.6 C 70 % 17.81 C
1883 05-07-2020 12:50:00 23.6 C 71 % 18.03 C
1884 05-07-2020 12:55:00 23.4 C 71 % 17.84 C
1885 05-07-2020 13:00:00 23.5 C 71 % 17.94 C
1886 05-07-2020 13:05:00 23.6 C 71 % 18.03 C
1887 05-07-2020 13:10:00 23.6 C 70 % 17.81 C
1888 05-07-2020 13:15:00 23.7 C 70 % 17.9 C
1889 05-07-2020 13:20:00 23.8 C 70 % 18 C
1890 05-07-2020 13:25:00 23.8 C 70 % 18 C
1891 05-07-2020 13:30:00 23.8 C 71 % 18.22 C
1892 05-07-2020 13:35:00 23.9 C 70 % 18.09 C
1893 05-07-2020 13:40:00 24.2 C 68 % 17.92 C
1894 05-07-2020 13:45:00 24.3 C 67 % 17.78 C
1895 05-07-2020 13:50:00 24.4 C 68 % 18.11 C
1896 05-07-2020 13:55:00 24.6 C 66 % 17.83 C
1897 05-07-2020 14:00:00 24.8 C 64 % 17.53 C
1898 05-07-2020 14:05:00 25 C 64 % 17.72 C
1899 05-07-2020 14:10:00 25.2 C 63 % 17.65 C
1900 05-07-2020 14:15:00 25.4 C 62 % 17.59 C
Sensor: Nr:Datum:Temp:Feuchte:Taupunkt:
Aussen-T/F 1901 05-07-2020 14:20:00 25.6 C 61 % 17.52 C
1902 05-07-2020 14:25:00 25.5 C 62 % 17.68 C
1903 05-07-2020 14:30:00 25.6 C 62 % 17.78 C
1904 05-07-2020 14:35:00 25.8 C 61 % 17.71 C
1905 05-07-2020 14:40:00 25.9 C 60 % 17.54 C
1906 05-07-2020 14:45:00 26.1 C 59 % 17.46 C
1907 05-07-2020 14:50:00 26.2 C 60 % 17.82 C
1908 05-07-2020 14:55:00 26.2 C 59 % 17.55 C
1909 05-07-2020 15:00:00 25.9 C 60 % 17.54 C
1910 05-07-2020 15:05:00 25.7 C 60 % 17.35 C
1911 05-07-2020 15:10:00 25.7 C 60 % 17.35 C
1912 05-07-2020 15:15:00 25.7 C 60 % 17.35 C
1913 05-07-2020 15:20:00 25.4 C 60 % 17.07 C
1914 05-07-2020 15:25:00 25.3 C 61 % 17.24 C
1915 05-07-2020 15:30:00 25.2 C 61 % 17.14 C
1916 05-07-2020 15:35:00 25.2 C 62 % 17.4 C
1917 05-07-2020 15:40:00 25.2 C 62 % 17.4 C
1918 05-07-2020 15:45:00 25.2 C 62 % 17.4 C
1919 05-07-2020 15:50:00 25.3 C 61 % 17.24 C
1920 05-07-2020 15:55:00 25.3 C 62 % 17.5 C
1921 05-07-2020 16:00:00 25.6 C 62 % 17.78 C
1922 05-07-2020 16:05:00 25.7 C 62 % 17.87 C
1923 05-07-2020 16:10:00 25.8 C 62 % 17.97 C
1924 05-07-2020 16:15:00 26.2 C 62 % 18.34 C
1925 05-07-2020 16:20:00 26.3 C 60 % 17.91 C
Sensor: Nr:Datum:Temp:Feuchte:Taupunkt:
Aussen-T/F 1926 05-07-2020 16:25:00 26.1 C 60 % 17.73 C
1927 05-07-2020 16:30:00 25.9 C 60 % 17.54 C
1928 05-07-2020 16:35:00 25.9 C 62 % 18.06 C
1929 05-07-2020 16:40:00 26.1 C 60 % 17.73 C
1930 05-07-2020 16:45:00 26.1 C 60 % 17.73 C
1931 05-07-2020 16:50:00 25.8 C 61 % 17.71 C
1932 05-07-2020 16:55:00 25.6 C 61 % 17.52 C
1933 05-07-2020 17:00:00 25.6 C 61 % 17.52 C
1934 05-07-2020 17:05:00 25.6 C 61 % 17.52 C
1935 05-07-2020 17:10:00 25.4 C 61 % 17.33 C
1936 05-07-2020 17:15:00 25.3 C 62 % 17.5 C
1937 05-07-2020 17:20:00 25.3 C 62 % 17.5 C
1938 05-07-2020 17:25:00 25.3 C 63 % 17.75 C
1939 05-07-2020 17:30:00 25.4 C 63 % 17.84 C
1940 05-07-2020 17:35:00 25.4 C 63 % 17.84 C
1941 05-07-2020 17:40:00 25.6 C 62 % 17.78 C
1942 05-07-2020 17:45:00 25.7 C 61 % 17.61 C
1943 05-07-2020 17:50:00 25.7 C 62 % 17.87 C
1944 05-07-2020 17:55:00 25.8 C 62 % 17.97 C
1945 05-07-2020 18:00:00 25.8 C 61 % 17.71 C
1946 05-07-2020 18:05:00 25.6 C 62 % 17.78 C
1947 05-07-2020 18:10:00 25.8 C 61 % 17.71 C
1948 05-07-2020 18:15:00 26.3 C 62 % 18.44 C
1949 05-07-2020 18:20:00 26 C 62 % 18.15 C
1950 05-07-2020 18:25:00 25.4 C 63 % 17.84 C
Sensor: Nr:Datum:Temp:Feuchte:Taupunkt:
Aussen-T/F 1951 05-07-2020 18:30:00 25.4 C 65 % 18.34 C
1952 05-07-2020 18:35:00 25.7 C 63 % 18.13 C
1953 05-07-2020 18:40:00 25.5 C 63 % 17.94 C
1954 05-07-2020 18:45:00 25.4 C 63 % 17.84 C
1955 05-07-2020 18:50:00 25.4 C 62 % 17.59 C
1956 05-07-2020 18:55:00 25.3 C 62 % 17.5 C
1957 05-07-2020 19:00:00 25.1 C 63 % 17.56 C
1958 05-07-2020 19:05:00 24.9 C 63 % 17.37 C
1959 05-07-2020 19:10:00 25.2 C 64 % 17.9 C
1960 05-07-2020 19:15:00 25.9 C 63 % 18.31 C
1961 05-07-2020 19:20:00 25.9 C 61 % 17.8 C
1962 05-07-2020 19:25:00 25.9 C 62 % 18.06 C
1963 05-07-2020 19:30:00 26.1 C 61 % 17.99 C
1964 05-07-2020 19:35:00 25.7 C 62 % 17.87 C
1965 05-07-2020 19:40:00 25.6 C 62 % 17.78 C
1966 05-07-2020 19:45:00 25.5 C 62 % 17.68 C
1967 05-07-2020 19:50:00 25.3 C 63 % 17.75 C
1968 05-07-2020 19:55:00 25.2 C 64 % 17.9 C
1969 05-07-2020 20:00:00 24.9 C 64 % 17.62 C
1970 05-07-2020 20:05:00 24.7 C 65 % 17.68 C
1971 05-07-2020 20:10:00 24.4 C 66 % 17.64 C
1972 05-07-2020 20:15:00 24.1 C 67 % 17.59 C
1973 05-07-2020 20:20:00 23.8 C 67 % 17.3 C
1974 05-07-2020 20:25:00 23.9 C 68 % 17.63 C
1975 05-07-2020 20:30:00 24.1 C 68 % 17.82 C
Sensor: Nr:Datum:Temp:Feuchte:Taupunkt:
Aussen-T/F 1976 05-07-2020 20:35:00 24.3 C 67 % 17.78 C
1977 05-07-2020 20:40:00 24.2 C 66 % 17.45 C
1978 05-07-2020 20:45:00 24.1 C 67 % 17.59 C
1979 05-07-2020 20:50:00 24.1 C 67 % 17.59 C
1980 05-07-2020 20:55:00 23.9 C 67 % 17.4 C
1981 05-07-2020 21:00:00 23.7 C 68 % 17.44 C
1982 05-07-2020 21:05:00 23.4 C 70 % 17.62 C
1983 05-07-2020 21:10:00 23.2 C 70 % 17.42 C
1984 05-07-2020 21:15:00 22.9 C 71 % 17.36 C
1985 05-07-2020 21:20:00 22.7 C 72 % 17.39 C
1986 05-07-2020 21:25:00 22.5 C 73 % 17.42 C
1987 05-07-2020 21:30:00 22.4 C 73 % 17.32 C
1988 05-07-2020 21:35:00 22.3 C 74 % 17.44 C
1989 05-07-2020 21:40:00 22.2 C 74 % 17.34 C
1990 05-07-2020 21:45:00 22 C 75 % 17.36 C
1991 05-07-2020 21:50:00 21.9 C 75 % 17.27 C
1992 05-07-2020 21:55:00 21.8 C 75 % 17.17 C
1993 05-07-2020 22:00:00 21.7 C 75 % 17.07 C
1994 05-07-2020 22:05:00 21.7 C 76 % 17.28 C
1995 05-07-2020 22:10:00 21.7 C 76 % 17.28 C
1996 05-07-2020 22:15:00 21.6 C 76 % 17.19 C
1997 05-07-2020 22:20:00 21.6 C 76 % 17.19 C
1998 05-07-2020 22:25:00 21.5 C 76 % 17.09 C
1999 05-07-2020 22:30:00 21.4 C 76 % 16.99 C
2000 05-07-2020 22:35:00 21.3 C 76 % 16.9 C
Sensor: Nr:Datum:Temp:Feuchte:Taupunkt:
Aussen-T/F 2001 05-07-2020 22:40:00 21.3 C 76 % 16.9 C
2002 05-07-2020 22:45:00 21.3 C 76 % 16.9 C
2003 05-07-2020 22:50:00 21.2 C 77 % 17.01 C
2004 05-07-2020 22:55:00 21.2 C 77 % 17.01 C
2005 05-07-2020 23:00:00 21.1 C 77 % 16.91 C
2006 05-07-2020 23:05:00 21.1 C 77 % 16.91 C
2007 05-07-2020 23:10:00 20.9 C 77 % 16.72 C
2008 05-07-2020 23:15:00 20.9 C 78 % 16.92 C
2009 05-07-2020 23:20:00 20.8 C 78 % 16.82 C
2010 05-07-2020 23:25:00 20.8 C 78 % 16.82 C
2011 05-07-2020 23:30:00 20.7 C 78 % 16.73 C
2012 05-07-2020 23:35:00 20.6 C 79 % 16.83 C
2013 05-07-2020 23:40:00 20.5 C 79 % 16.73 C
2014 05-07-2020 23:45:00 20.3 C 80 % 16.74 C
2015 05-07-2020 23:50:00 20.2 C 80 % 16.64 C
2016 05-07-2020 23:55:00 19.9 C 81 % 16.54 C

Legende:
   Min
   Max


Maximal/Minimal-Werte vom 29.06.2020 - 05.07.2020

Sensor Min Max Avg
Temp
(Aussen-T/F)
9.7 °C
30-06-2020  05:55:00
26.4 °C
01-07-2020  17:40:00
19.18 °C
Feuchte
(Aussen-T/F)
41 %
29-06-2020  18:45:00
97 %
02-07-2020  06:45:00
72.55 %
Taupunkt
(Aussen-T/F)
8.24 C
30-06-2020  05:40:00
18.44 C
05-07-2020  18:15:00
13.76 C

Die Daten stammen von einer Davis Vantage Pro 2 Wetter-Station und werden unter Linux mit der Software wview2wettercgi und aufbereitet. Alle Angaben erfolgen ohne Gewähr für ihre Vollständigkeit oder Richtigkeit.
Kontakt: Rainer Krienke krienke@uni-koblenz.de . Meine Webseiten an der Uni Koblenz oder privat.
Version: $Revision: 0.78 $